COOLWX HOME

EXTREME HOME

OTHER COOLWX PAGES
    Coolwx Hit Images
    Extreme Weather
    Global Forecasts
    Hourly Model Forecasts
    Mesoscale Analysis
    Obs. Weather Database
    Offshore Weather Data
    Precipitation Type
    Record Breakers
    U.S. Weather Statistics


EXTREME WX CATEGORIES
   CITIES & VALUES:
       Temperature
       Dewpoint
       Heat Index
       Wind
       Wind Chill
       Pressure
       Pressure Change
       Precip Type/Intensity
       Precip Amount
       Thunderstorm
       Blizzard
       Visibility
       Astronomical
       Other
       Multiple
       Unknown
   CITIES & FULL REPORTS:
       Temperature
       Dewpoint
       Heat Index
       Wind
       Wind Chill
       Pressure
       Pressure Change
       Precip Type/Intensity
       Precip Amount
       Thunderstorm
       Blizzard
       Visibility
       Astronomical
       Other
       Multiple
   USA & WORLD PLOTS:
       Temperature
       Dewpoint
       Wind
       Wind Chill & Heat Index
       Pressure
       Pressure Change
       Precip Type/Intensity
       Precip Amount
       Thunderstorm
       Blizzard
       Visibility
       Astronomical
       Other
       Unknown
   REPEAT OFFENDERS:
       Today
       Yesterday
       This month
       This year
       Since 2007
   RSS:
       Feed
   ARCHIVE:
       2024061706
       2024061703
       2024061700
       2024061621
       2024061618
       2024061615
       2024061612
       2024061609
       2024061606
       2024061603
       2024061600
       2024061521
       2024061518
       2024061515
       2024061512
       2024061509
       2024061506
       2024061503
       2024061500
       2024061421
       2024061418
       2024061415
       2024061412
       2024061409

CONTACT
       Bob Hart
       (rhart at fsu.edu)

Extreme & Weird Weather of the World - Archive for 2024061000
Currently using 35739 observations from 5179 unique global stations over the past 3 hours.
Last Updated: Mon Jun 10 00:46:31 UTC 2024



0 stations reporting temperature -55°C or colder

1 station reporting temperature -50°C to -54°C

0 stations reporting temperature -45°C to -49°C

0 stations reporting temperature -40°C to -44°C

0 stations reporting temperature 55°C or warmer

0 stations reporting temperature 50°C to 54°C

0 stations reporting temperature 45°C to 49°C

18 stations reporting temperature 40°C to 44°C


4 stations reporting dewpoint 30°C or greater

16 stations reporting dewpoint 28-29°C

207 stations reporting dewpoint 26-27°C


2 stations reporting wind gusts 70kt or stronger

0 stations reporting wind gusts 60-69kt

6 stations reporting wind gusts 50-59kt

35 stations reporting wind gusts 40-49kt


1 station reporting (sustained) wind chill of -55°C or colder

0 stations reporting (sustained) wind chill of -50°C to -54°C

0 stations reporting (sustained) wind chill of -45°C to -49°C

1 station reporting (sustained) wind chill of -40°C to -44°C


1 station reporting heat index of 55°C or hotter

0 stations reporting heat index of 50°C to 54°C

9 stations reporting heat index of 45°C to 49°C

121 stations reporting heat index of 40°C to 44°C


0 stations reporting sea level pressure < 950mb

1 station reporting sea level pressure 950mb - 959mb

  • NZCM: Williams Field, Antarctica [950.8mb, 28.07in]    
    NZCM 092255Z AUTO 16030G40KT 2700 BLSN BR OVC008 M14/M17 A2824 RMK AO2 PK WND 15040/2253 VIS 1400V5000 SNE2236 SLP569 T11411172 $
    NZCM 092226Z AUTO 17025G33KT 3600 -SN BR SQ OVC015 M09/M14 A2822 RMK AO2 PK WND 16033/2225 VIS 1400V8000 PRESRR SLP561 T10881136 $
    NZCM 092225Z AUTO 18023KT 140V200 4500 -SN BR SQ OVC015 M09/M14 A2822 RMK AO2 PK WND 19032/2224 VIS 1800V8000 PRESRR SLP560 T10861135 $
    NZCM 092155Z AUTO 31011G21KT 270V340 9999 -SN OVC025 M08/M18 A2814 RMK AO2 PK WND 30026/2122 SNE2103B2119E2138B2151 PRESRR SLP534 T10811181 $
    NZCM 092151Z AUTO 30011G21KT 9999 -SN OVC027 M08/M18 A2813 RMK AO2 PK WND 30026/2122 SNE2103B2119E2138B2151 PRESRR SLP531 T10811182 $
    NZCM 092138Z AUTO 32016G22KT 9999 OVC028 M08/M19 A2811 RMK AO2 PK WND 30026/2122 SNE2103B2119E2138 PRESRR SLP523 T10791186 $
    NZCM 092119Z AUTO 32020G26KT 9999 -SN OVC032 M08/M18 A2808 RMK AO2 PK WND 31026/2116 SNE2103B2119 SLP514 T10791184 $
    NZCM 092103Z AUTO 31014G25KT 280V340 9999 OVC036 M08/M19 A2808 RMK AO2 SNE2103 SLP512 T10781185 $
    NZCM 092055Z AUTO 31014G26KT 270V330 9999 -SN OVC034 M08/M19 A2807 RMK AO2 PK WND 32031/2024 SNB1956E2050B2054 SLP510 T10781185 53005 $
    NZCM 092054Z AUTO 31015G26KT 270V330 9999 -SN OVC034 M08/M19 A2807 RMK AO2 PK WND 32031/2024 SNB1956E2050B2054 SLP510 T10781185 $
    NZCM 092050Z AUTO 31018G27KT 9999 OVC034 M08/M19 A2806 RMK AO2 PK WND 32031/2024 SNB1956E2050 SLP508 T10791187 $
1 station reporting sea level pressure 960mb - 969mb

  • NZCM: Williams Field, Antarctica [961.2mb, 28.38in]    
    NZCM 092355Z AUTO 14024G33KT 4800 BLSN BR OVC012 M15/M18 A2837 RMK AO2 PK WND 17040/2259 VIS 3400V5000 SNB2321E2339 PRESRR SLP612 T11551183 11078 21155 53101 $
2 stations reporting sea level pressure 970mb - 979mb

  • PACX: UNKNOWN, [972.5mb, 28.71in]    
    PACX 092356Z AUTO 08012G19KT 10SM CLR 25/03 A2982 RMK AO2 SLP725 T02500028 10250 20206 56013
    PACX 092256Z AUTO 10011G21KT 10SM CLR 24/03 A2982 RMK AO2 SLP727 T02440028
    PACX 092156Z AUTO 06011G19KT 10SM CLR 24/04 A2984 RMK AO2 SLP731 T02440044
    PACX 092056Z AUTO 06007G21KT 030V110 10SM CLR 23/05 A2986 RMK AO2 SLP738 T02330050 58010
  • PFTO: UNKNOWN, [971.0mb, 28.67in]    
    PFTO 092356Z AUTO VRB06KT 10SM CLR 24/M02 A2972 RMK AO2 SLP710 T02391022 10244 20200 57012 $
    PFTO 092256Z AUTO VRB06KT 10SM CLR 24/00 A2973 RMK AO2 SLP713 T02390000 $
    PFTO 092156Z AUTO 11008KT 10SM CLR 23/M02 A2975 RMK AO2 SLP718 T02281017 $
    PFTO 092056Z AUTO VRB06KT 10SM CLR 22/M01 A2976 RMK AO2 SLP722 T02221011 57011 $
12 stations reporting sea level pressure 980mb - 989mb

  • ENGM: Oslo / Gardermoen, Norway [988mb, 29.17in]    
    ENGM 100020Z VRB02KT 9999 FEW009 05/05 Q0989
    ENGM 092350Z 36003KT 9999 FEW009 05/04 Q0988
    ENGM 092320Z 34003KT 300V020 9999 FEW009 06/05 Q0988
    ENGM 092250Z 36004KT 9999 FEW009 06/05 Q0988
    ENGM 092220Z 34004KT 310V010 9999 FEW006 SCT021 07/06 Q0988
    ENGM 092150Z 02003KT 9999 FEW005 SCT040 07/06 Q0988
    ENGM 092120Z 01004KT 9999 FEW010 SCT036 BKN055 08/06 Q0988
    ENGM 092050Z 03007KT 360V080 9999 -SHRA FEW010 BKN044 08/07 Q0988 NOSIG
  • ENRO: Roros Lufthavn, Norway [987mb, 29.14in]    
    ENRO 100020Z AUTO 35012G23KT 320V020 9999 -DZ FEW016/// BKN020/// OVC026/// 07/05 Q0987
    ENRO 092350Z AUTO 35010KT 9999 -DZRA BKN013/// OVC018/// 07/05 Q0987
    ENRO 092320Z AUTO 35011KT 9999 -DZ SCT014/// BKN021/// OVC025/// 07/05 Q0987
    ENRO 092250Z AUTO 35010KT 310V030 9999 -RA NCD 07/05 Q0987
    ENRO 092220Z AUTO 36004KT 310V050 9999 -DZRA OVC012/// 06/05 Q0987
    ENRO 092150Z AUTO 24002KT 9999 -RA SCT014/// BKN017/// OVC025/// 06/05 Q0987
    ENRO 092120Z AUTO 00000KT 9999 -RA SCT013/// BKN023/// OVC032/// 06/04 Q0987
    ENRO 092050Z AUTO 35003KT 310V020 9999 -RA BKN019/// BKN025/// OVC059/// 06/04 Q0988
  • ENRY: Rygge, Norway [989mb, 29.20in]    
    ENRY 092350Z AUTO 27007KT 9999 FEW051/// 08/06 Q0989
    ENRY 092320Z AUTO 27006KT 9999 NCD 08/06 Q0989
    ENRY 092250Z AUTO 27007KT 9999 NCD 08/06 Q0989
    ENRY 092220Z AUTO 25004KT 9999 NCD 08/07 Q0989
    ENRY 092150Z AUTO 25005KT 9999 NCD 09/07 Q0989
    ENRY 092120Z AUTO 23004KT 9999 BKN043/// 09/07 Q0989 RERA
    ENRY 092050Z AUTO 20004KT 9999 -RA BKN035/// BKN042/// 09/07 Q0989 REDZ RESHRA
  • ENTO: Torp, Norway [989mb, 29.20in]    
    ENTO 092250Z AUTO 26005KT 9999 NCD 08/08 Q0989
    ENTO 092220Z AUTO 24005KT 9999 NCD 08/08 Q0989
    ENTO 092150Z AUTO 25005KT 9999 NCD 08/08 Q0989
    ENTO 092120Z AUTO 24005KT 9999 NCD 08/08 Q0989
    ENTO 092050Z 26004KT 9999 VCSH SCT020CB BKN044 09/09 Q0989 NOSIG
  • ENVA: Trondheim / Vaernes, Norway [989mb, 29.20in]    
    ENVA 092250Z 26009KT 9999 -RA BKN062 11/09 Q0989 RMK WIND 670FT 29013KT
  • ESKM: Siljan / Mora, Sweden [989mb, 29.20in]    
    ESKM 100020Z AUTO VRB01KT 9999 BKN011/// BKN016/// OVC040/// 05/05 Q0989
    ESKM 092350Z AUTO 00000KT 9999 SCT011/// BKN013/// OVC053/// 05/05 Q0989
    ESKM 092320Z AUTO 18003KT 9999 FEW016/// SCT053/// 06/05 Q0989
    ESKM 092250Z AUTO 00000KT 9999 FEW026/// 04/03 Q0989
    ESKM 092220Z AUTO 19002KT 9999 SCT026/// 06/05 Q0989
    ESKM 092150Z AUTO 12001KT 9999 NCD 05/04 Q0989
    ESKM 092120Z AUTO VRB03KT 9999 SCT076/// 07/05 Q0989
    ESKM 092050Z AUTO VRB01KT 9999 BKN070/// 06/05 Q0989
  • ESKS: Strangnas AB, Sweden [988mb, 29.17in]    
    ESKS 100020Z AUTO 10004KT 9999 BKN008/// OVC150/// 03/03 Q0988
    ESKS 092350Z AUTO 11005KT 9999 BKN009/// OVC150/// 04/03 Q0988
    ESKS 092320Z AUTO 09004KT 9999 FEW008/// BKN014/// 04/03 Q0988
    ESKS 092250Z AUTO 08003KT 9999 FEW016/// BKN033/// 03/03 Q0988
    ESKS 092220Z AUTO 10004KT 9999 BKN031/// OVC170/// 04/03 Q0988
    ESKS 092150Z AUTO 11005KT 9999 BKN031/// OVC180/// 05/03 Q0988
    ESKS 092120Z AUTO 14004KT 9999 OVC030/// 05/04 Q0988
    ESKS 092050Z AUTO 14003KT 9999 OVC026/// 05/04 Q0988
  • ESND: Sveg Airport, Sweden [988mb, 29.17in]    
    ESND 100020Z AUTO 11004KT 9999 -RA ///042/// 06/04 Q0988
    ESND 092350Z AUTO 13005KT 9999 BKN052/// 07/04 Q0988
    ESND 092320Z AUTO 12003KT 9999 FEW039/// BKN055/// OVC068/// 07/04 Q0988
    ESND 092250Z AUTO 14004KT 110V190 9999 BKN037/// OVC057/// 07/04 Q0988
    ESND 092220Z AUTO VRB01KT 9999 SCT036/// 08/04 Q0988
    ESND 092150Z AUTO VRB02KT 9999 BKN039/// OVC098/// 07/04 Q0988
    ESND 092120Z AUTO 11003KT 9999 BKN038/// OVC052/// 07/04 Q0988
    ESND 092050Z AUTO 12005KT 090V150 9999 SCT038/// BKN046/// BKN062/// 08/04 Q0988
  • ESNZ: Ostersund Froson, Sweden [987mb, 29.14in]    
    ESNZ 100020Z AUTO 10007KT 9999 -RA FEW013/// OVC020/// 06/06 Q0989
    ESNZ 092350Z AUTO 09007KT 9999 -RA FEW008/// SCT016/// BKN019/// 06/06 Q0988
    ESNZ 092320Z AUTO 08006KT 9999 -RA SCT016/// BKN025/// 06/06 Q0988
    ESNZ 092250Z AUTO 08006KT 9999 -RA FEW005/// BKN018/// BKN031/// 06/06 Q0988
    ESNZ 092220Z AUTO 08008KT 9999 -RA FEW009/// SCT012/// BKN023/// 06/06 Q0988 RERA
    ESNZ 092150Z AUTO 10008KT 9999 FEW008/// SCT014/// BKN027/// 06/06 Q0988
    ESNZ 092120Z AUTO 13012KT 9999 -RA FEW009/// BKN022/// BKN028/// 06/05 Q0987
    ESNZ 092050Z AUTO 14012KT 8000 -RA SCT010/// BKN016/// OVC022/// 06/05 Q0987 RERA
  • ESOH: Hagfors AP, Sweden [989mb, 29.20in]    
    ESOH 100020Z AUTO 19006KT //// R18///// // ///027/// ///// Q0989
    ESOH 092350Z AUTO 20007KT 170V230 //// R18///// // OVC037/// ///// Q0989
    ESOH 092320Z AUTO 20006KT 170V240 //// R18///// // OVC043/// ///// Q0989
    ESOH 092250Z AUTO VRB03KT //// R18///// // BKN100/// ///// Q0989
    ESOH 092220Z AUTO 13004KT 100V180 //// R18///// // FEW018/// SCT041/// BKN110/// ///// Q0989
  • ESOK: Karlstad, Sweden [989mb, 29.20in]    
    ESOK 100020Z AUTO 23003KT 200V280 4800 // FEW007/// SCT010/// BKN018/// 08/07 Q0989
    ESOK 092350Z AUTO 17005KT 9999 // FEW008/// SCT013/// 08/08 Q0989
  • ESST: Torsby Airport, Sweden [989mb, 29.20in]    
    ESST 100020Z AUTO 16003KT 9999 SCT011/// OVC025/// 08/06 Q0989
    ESST 092350Z AUTO 18005KT 9999 BKN029/// OVC040/// 08/07 Q0989
    ESST 092320Z AUTO 17007KT 9999 FEW009/// OVC025/// 08/07 Q0989
    ESST 092250Z AUTO 14007KT 9999 SCT028/// OVC039/// 08/07 Q0989
    ESST 092220Z AUTO 15005KT 9999 BKN040/// OVC053/// 08/06 Q0989
    ESST 092150Z AUTO 14004KT 9999 BKN042/// OVC059/// 08/07 Q0989
    ESST 092120Z AUTO 16006KT 120V180 9999 BKN057/// OVC100/// 08/07 Q0989
    ESST 092050Z AUTO 16006KT 9999 BKN057/// 08/08 Q0989
1 station reporting sea level pressure > 1055mb

  • MMLO: Del Bajio / Leon, Mexico [1099.8mb, 32.47in]    
    MMLO 092347Z 36013KT 10SM SCT030TCU BKN120 32/05 A3003 RMK SLP998 57015 954 8/230 CB E
0 stations reporting sea level pressure 1050-1054mb

0 stations reporting sea level pressure 1045-1049mb

1 station reporting sea level pressure 1040-1044mb

  • FDMY: Mayiwane, Swaziland [1043mb, 30.79in]    
    FDMY 092200Z AUTO 02002KT //// // ////// 11/07 Q1043
6 stations reporting sea level pressure 1035-1039mb

  • FAPP: Polokwane Intl, South Africa [1035mb, 30.56in]    
    FAPP 092300Z AUTO 00000KT //// // ////// 02/00 Q1035
    FAPP 092200Z AUTO 13003KT //// // ////// 05/01 Q1035
  • FASI: Springs, South Africa [1037mb, 30.62in]    
    FASI 100000Z AUTO 00000KT //// // ////// 02/M00 Q1036
    FASI 092300Z AUTO 17002KT //// // ////// 02/M00 Q1036
    FASI 092200Z AUTO 31002KT //// // ////// 03/M00 Q1037
    FASI 092100Z AUTO 13002KT //// // ////// 05/M00 Q1037
  • FAVV: Vereeniging, South Africa [1035mb, 30.56in]    
    FAVV 092300Z AUTO 34005KT //// // ////// 02/M00 Q1035
    FAVV 092200Z AUTO 32003KT //// // ////// 03/M00 Q1035
    FAVV 092100Z AUTO 33004KT //// // ////// 02/M00 Q1035
  • FDPP: Piggs Peak, Swaziland [1035mb, 30.56in]    
    FDPP 092300Z AUTO 27001KT //// // ////// 10/08 Q1035
    FDPP 092200Z AUTO 27003KT //// // ////// 10/08 Q1035
  • SLLP: La Paz / Alto, Bolivia [1038mb, 30.65in]    
    SLLP 100000Z 08004KT 9999 NSC 05/M12 Q1038
    SLLP 092300Z VRB02KT 9999 FEW070 SCT200 08/M13 Q1038
    SLLP 092200Z 20006KT 9999 FEW017 BKN200 10/M10 Q1037
    SLLP 092100Z 27006KT 9999 FEW020 14/M12 Q1037
  • SPJL: Juliaca, Peru [1035mb, 30.56in]    
    SPJL 100000Z 00000KT CAVOK 09/M07 Q1035 RMK PP000


1 station reporting 3-hourly pressure fall of 10mb or greater

  • KDYS: Abilene, Dyess AFB, TX, United States [-16.3mb]
    KDYS 092355Z 13017G24KT 10SM CLR 34/18 A2986 RMK AO2A PK WND 15027/04 SLPNNO ALSTG DATA ESTMD T03380175 10363 20324 58163
0 stations reporting 3-hourly pressure fall of 5mb to 9.9mb

8 stations reporting 3-hourly pressure rise of 5mb to 9.9mb

  • CERM: Edmunston, NB, Canada [7.6mb]
    CERM 100000Z AUTO 26001KT 14/13 RMK AO1 7PAST HR 0002 SLP953 P0011 T01360130 50076
  • CWHQ: Deschambaults , Que., Canada [5.4mb]
    CWHQ 092100Z AUTO 21001KT 14/12 RMK AO1 5PAST HR M P0002 T01390123 50054
    CWHQ 092200Z AUTO 26003KT 16/12 RMK AO1 T01550116 50054
    CWHQ 092300Z AUTO 24001KT 15/12 RMK AO1 T01450119 50054
    CWHQ 100000Z AUTO 33001KT 13/12 RMK AO1 T01330122 50054
  • CWKG: Kejimkujik 1, N. S., Canada [7.5mb]
    CWKG 092300Z AUTO 17004KT 14/13 RMK AO1 9PAST HR 8025 SLP981 P0011 T01410134 50052
    CWKG 100000Z AUTO 17005KT 14/13 RMK AO1 3PAST HR 8037 SLP965 P0009 T01370131 50075
  • CWMJ: Maniwaki, Canada [5.1mb]
    CWMJ 092300Z AUTO 25005KT 15/15 RMK AO1 4PAST HR 3004 SLP982 P0002 T01520151 50051
    CWMJ 100000Z AUTO 27005KT 15/13 RMK AO1 4000 SLP980 T01500134 50051
  • CWPE: Point Lepreau, N. B., Canada [6.7mb]
    CWPE 092300Z AUTO 22003KT 11/10 RMK AO1 1PAST HR 6009 SLP975 P0008 T01060103 50065
    CWPE 100000Z AUTO 24003KT 11/11 RMK AO1 2PAST HR 8012 SLP966 P0001 T01120109 50067
  • CWSS: St. Stephen, N. B., Canada [5.4mb]
    CWSS 092300Z AUTO 21004KT 13/13 RMK AO1 8PAST HR 7008 SLP966 P0003 T01250128 50054
    CWSS 100000Z AUTO 19002KT 13/13 RMK AO1 8011 SLP959 T01310126 50054
  • CXDI: Delhi CS, Ont., Canada [9.0mb]
    CXDI 092100Z AUTO 30007G17KT 14/12 RMK AO1 3PAST HR 5008 PK WND 34020/2041 SLP047 P0013 T01430122 50090
    CXDI 092200Z AUTO 34012G20KT 17/12 RMK AO1 3002 PK WND 33020/2152 SLP046 T01670120 50090
    CXDI 092300Z AUTO 33012G18KT 16/10 RMK AO1 3012 PK WND 35018/2217 SLP053 T01550100 50090
    CXDI 100000Z AUTO 35010G16KT 15/10 RMK AO1 3016 PK WND 33020/2333 SLP063 T01490098 50090
  • KP69: Lowell, ID, United States [5.1mb]
    KP69 092352Z AUTO 00000KT 18/17 A2996 RMK AO1 PRESRR SLP138 P0002 60002 T01780167 10300 20178 53051
3 stations reporting 3-hourly pressure rise of 10mb or greater

  • CWIT: Saint Clothilde, Canada [12.8mb]
    CWIT 092100Z AUTO 23006KT 17/13 RMK AO1 7002 SLP977 T01660127 50128
    CWIT 092200Z AUTO 24006KT 17/11 RMK AO1 8005 SLP973 T01660114 50128
    CWIT 092300Z AUTO 24005KT 17/12 RMK AO1 5005 SLP973 T01660122 50128
    CWIT 100000Z AUTO 25004KT 15/11 RMK AO1 6004 SLP973 T01510114 50128
  • CXVN: Vineland (au8), ON, Canada [16.2mb]
    CXVN 092100Z AUTO 00000KT 15/13 RMK AO1 6PAST HR 6002 PK WND 34024/2015 SLP035 P0049 T01520134 50162
    CXVN 092200Z AUTO 16001KT 15/14 RMK AO1 1004 SLP035 T01540144 50162
    CXVN 092300Z AUTO 27004KT 16/14 RMK AO1 3003 SLP038 T01620136 50162
    CXVN 100000Z AUTO 31009KT 16/11 RMK AO1 3011 SLP046 T01610111 50162
  • NZCM: Williams Field, Antarctica [10.1mb]
    NZCM 092355Z AUTO 14024G33KT 4800 BLSN BR OVC012 M15/M18 A2837 RMK AO2 PK WND 17040/2259 VIS 3400V5000 SNB2321E2339 PRESRR SLP612 T11551183 11078 21155 53101 $


0 stations reporting heavy snow

0 stations reporting any sleet

0 stations reporting any freezing rain

48 stations reporting heavy rain

  • CYNM: Matagami, Que., Canada
    CYNM 092201Z AUTO 32015G21KT 5SM +RA BR OVC004 07/07 A2952 RMK SLP008
    CYNM 092205Z AUTO 31019G27KT 2 1/2SM +RA BR BKN004 BKN008 OVC014 07/06 A2952 RMK PCPN 1.8MM PAST HR SLP006
    CYNM 092306Z AUTO 31017G25KT 4SM +RA BR BKN004 OVC011 06/06 A2952 RMK PCPN 0.8MM PAST HR SLP009
  • EGCC: Manchester Airport, United Kingdom
    EGCC 092220Z AUTO 28008KT 230V320 3300 +RA BKN005/// BKN009/// OVC018/// //////CB 11/10 Q1007
  • EGCK: Caernarfon, United Kingdom
    EGCK 092050Z AUTO 25014KT 2600 +RA FEW002/// SCT011/// BKN015/// 13/11 Q1009
  • EGOS: Shawbury, United Kingdom
    EGOS 092350Z AUTO 32013KT 9999 +RA OVC009/// 10/09 Q1008
  • EGOV: Valley, United Kingdom
    EGOV 092050Z AUTO 32011KT 4400 +RA OVC005/// 11/10 Q1009
  • EGXW: Waddington, United Kingdom
    EGXW 092150Z AUTO 24004KT 5000 +RA OVC011/// 11/10 Q1008
  • EGYD: Cranwell, United Kingdom
    EGYD 092320Z AUTO 19008KT 4500 +RA OVC008/// 11/10 Q1006
  • K1F0: Ardmore, OK, United States
    K1F0 100015Z AUTO 06017G28KT 7SM +RA SCT015 BKN050 OVC090 23/21 A2987 RMK AO2 P0003 T02340209
    K1F0 100035Z AUTO 10008G14KT 2 1/2SM +RA BR SCT026 BKN047 OVC090 21/20 A2986 RMK AO2 P0028 T02150196
  • K2IS: Clewiston, FL, United States
    K2IS 092235Z AUTO 19008KT 10SM +RA OVC047 29/24 A2987 RMK AO2 P0001 TSNO T02920242
  • KAVL: Asheville, Asheville Regional Airport, NC, United States
    KAVL 092305Z 35012G26KT 1 3/4SM +RA BR FEW017 BKN036 OVC050 22/20 A2986 RMK AO2 PK WND 35026/2302 WSHFT 2251 LTG DSNT N AND NW PRESRR P0003 T02170200
    KAVL 092309Z 34010G26KT 1SM +RA BR FEW017 BKN027 OVC050 22/20 A2987 RMK AO2 PK WND 35026/2302 WSHFT 2251 LTG DSNT N PRESRR P0008 T02170200 RVRNO
    KAVL 092318Z 36008G19KT 3/4SM +RA BR FEW008 BKN020 OVC038 21/19 A2987 RMK AO2 PK WND 35026/2302 WSHFT 2251 LTG DSNT E P0028 T02060194 RVRNO
    KAVL 092336Z 36007G18KT 3/4SM +RA BR FEW007 BKN035 OVC044 21/19 A2988 RMK AO2 PK WND 35026/2302 WSHFT 2251 P0048 T02060194 RVRNO
  • KAXX: Angel Fire, NM, United States
    KAXX 092255Z AUTO 32010G19KT 4SM +RA SCT035 OVC055 13/06 A3038 RMK AO2 P0018 T01320055
  • KBUF: Buffalo, Greater Buffalo Intl Arpt, NY, United States
    KBUF 092133Z 30011G17KT 1 1/2SM +RA SCT018 BKN038 OVC050 14/11 A2965 RMK AO2 PK WND 24031/2101 WSHFT 2111 LTG DSNT W P0003 T01440111
    KBUF 092139Z 28006G17KT 2 1/2SM +RA FEW018 BKN035 OVC046 14/11 A2964 RMK AO2 PK WND 24031/2101 WSHFT 2111 LTG DSNT W P0008 T01390111
  • KBUY: Burlington, Burlington Alamance Regional Airport, NC, United States
    KBUY 092354Z AUTO 30015G38KT 1 1/2SM +RA SCT030 BKN050 OVC095 21/18 A2975 RMK AO2 PK WND 30038/2347 RAB49 SLP071 P0016 60016 T02060178 10294 20206 53009
    KBUY 100017Z AUTO 28009G19KT 1 3/4SM +RA BR BKN048 OVC075 19/18 A2976 RMK AO2 P0017 T01940178
  • KCVN: Clovis Municipal, NM, United States
    KCVN 100031Z AUTO 13011KT 6SM VCTS +RA BR FEW031 BKN075 OVC100 18/17 A3010 RMK AO2 WSHFT 2343 LTG DSNT ALQDS TSE26B31 P0006
  • KDKK: Dunkirk, Chautauqua County, NY, United States
    KDKK 092217Z AUTO 25014G36KT 3SM +RA FEW018 BKN027 OVC070 15/12 A2968 RMK AO2 PK WND 28036/2208 LTG DSNT W-NE RAB01 P0020 T01500122
  • KDSV: Dansville, Dansville Municipal Airport, NY, United States
    KDSV 092349Z AUTO 00000KT 2 1/2SM +RA BR FEW047 OVC065 14/13 A2967 RMK AO2 P0010 $
  • KERV: Kerrville, TX, United States
    KERV 092335Z AUTO 09006KT 1 3/4SM +RA SCT034 OVC047 29/20 A2982 RMK AO2 LTG DSNT SW AND W P0011 T02860202
  • KEXX: Lexington, Davidson County Airport, NC, United States
    KEXX 100005Z AUTO 32009G17KT 250V010 7SM +RA SCT039 BKN055 OVC110 23/18 A2979 RMK AO2 P0002 T02270183
    KEXX 100025Z AUTO 00000KT 2 1/2SM +RA SCT033 BKN046 OVC050 19/19 A2979 RMK AO2 P0017 T01910191
  • KFVE: Frenchville, ME, United States
    KFVE 092124Z AUTO 24006KT 1 3/4SM +RA BR SCT013 BKN050 OVC070 14/12 A2938 RMK AO2 P0006 T01440122 $
  • KGSO: Greensboro, Piedmont Triad Intl Arpt, NC, United States
    KGSO 092338Z 34009G16KT 2SM +RA BR SCT036 BKN047 OVC080 20/18 A2976 RMK AO2 PK WND 35027/2306 WSHFT 2300 RAB26 P0001 T02000183 $
    KGSO 092341Z 34009KT 1 1/4SM +RA BR SCT036 BKN044 OVC080 19/18 A2976 RMK AO2 PK WND 35027/2306 WSHFT 2300 RAB26 P0005 T01940183 $
    KGSO 092351Z 34005KT 2SM +RA BR SCT026 BKN046 OVC080 19/18 A2976 RMK AO2 PK WND 35027/2306 WSHFT 2300 RAB26 P0026 $
  • KHIE: Whitefield, NH, United States
    KHIE 092107Z AUTO 33005G22KT 2SM +RA SCT027 BKN036 OVC055 12/09 A2949 RMK AO2 LTG DSNT NE AND SW AND W RAB2057 P0007 T01220089
    KHIE 092115Z AUTO 31007KT 1 1/2SM +RA BR FEW027 BKN036 OVC060 12/10 A2950 RMK AO2 LTG DSNT SW RAB2057 P0014 T01170100
  • KHKY: Hickory, NC, United States
    KHKY 092351Z 34009G18KT 1 3/4SM +RA SCT055 BKN070 OVC095 21/18 A2979 RMK AO2 RAB31 P0007
    KHKY 092353Z 36006G18KT 2SM +RA BR SCT055 BKN070 OVC100 21/18 A2979 RMK AO2 RAB31 SLP068 P0007 60007 T02060183 10289 20206 53006
  • KIPJ: Lincolnton, NC, United States
    KIPJ 100005Z AUTO 30018G29KT 260V320 10SM +RA SCT035 BKN050 OVC090 26/20 A2983 RMK AO2 P0005 T02550202
  • KMIA: Miami, Miami Intl Arpt, FL, United States
    KMIA 100039Z 22011G20KT 2SM +RA BR BKN022CB OVC027 27/24 A2992 RMK AO2 RAB28 CB OHD MOV N P0003 T02670244 $
    KMIA 100043Z 21011G20KT 2SM +RA BR BKN022CB OVC027 27/25 A2993 RMK AO2 WSHFT 0027 RAB28 CB OHD MOV N P0010 T02670250 $
  • KMRN: Morganton, Morganton-Lenoir Airport, NC, United States
    KMRN 092325Z AUTO 30010G14KT 10SM +RA SCT024 SCT032 OVC060 24/20 A2985 RMK AO2 P0003 T02360196
  • KOQT: Oak Ridge, TN, United States
    KOQT 092053Z AUTO VRB04KT 1/2SM +RA FG SCT021 BKN029 OVC038 23/22 A2983 RMK AO2 RAB41 PRESRR SLP088 P0002 60002 T02330217 56017
  • KROC: Rochester, Greater Rochester Intl Arpt, NY, United States
    KROC 092054Z 35014G19KT 1 1/2SM R04/3500VP6000FT +RA BR BKN027 BKN043 OVC050 14/12 A2965 RMK AO2 PK WND 27032/2016 SLP044 P0002 60002 T01440122 53006
    KROC 092105Z VRB04KT 2SM R04/3500V6000FT +RA BR BKN024 BKN034 OVC048 14/12 A2964 RMK AO2 P0029 T01390122
  • KSJT: San Angelo, Mathis Field, TX, United States
    KSJT 092051Z 12016G26KT 1 1/4SM VCTS +RA BKN032 OVC080 22/19 A2987 RMK AO2 PK WND 09035/1955 LTG DSNT E-S RAB23 TSB13E29 SLP092 P0052 60052 T02220189 53004
  • KSVH: Statesville, NC, United States
    KSVH 100005Z AUTO 30012G16KT 5SM +RA SCT025 BKN043 OVC050 21/19 A2982 RMK AO2 P0007 T02140192
  • KUZA: Rock Hill, SC, United States
    KUZA 100003Z AUTO 29006KT 1 1/2SM VCTS +RA BR BKN050 BKN065 OVC100 24/22 A2976 RMK AO2 LTG DSNT W AND NW P0008 T02390222
  • KVGC: Hamilton, NY, United States
    KVGC 092135Z AUTO 30008KT 260V330 7SM +RA SCT040 BKN050 BKN060 16/08 A2962 RMK AO2
  • KVTP: La Veta Mountain, CO, United States
    KVTP 092355Z AUTO 30012G16KT 1 1/4SM +RA SCT020 BKN042 OVC050 07/02 A3055 RMK AO2 P0032
  • LSGC: Les Eplatures, Switzerland
    LSGC 092150Z AUTO VRB03KT 2500 +RA OVC007 12/12 Q1010 REDZ
  • LSGG: Geneve-Cointrin, Switzerland
    LSGG 092250Z AUTO 22005KT 6000 +SHRA SCT007 SCT026 FEW///TCU 16/16 Q1009 RERA
  • LSMD: Dubendorf, Switzerland
    LSMD 092250Z AUTO VRB02KT 7000NDV +RA FEW005 BKN012 15/15 Q1008 RMK
  • LSMP: Payerne, Switzerland
    LSMP 092050Z AUTO VRB03KT 2600NDV +RA BR FEW013 SCT016 BKN025 16/16 Q1008 RMK
    LSMP 092320Z AUTO 32004KT 260V350 4000NDV +RA FEW011 BKN015 16/15 Q1008 RMK
  • LSZH: Zurich-Kloten, Switzerland
    LSZH 092150Z AUTO 28004KT 9999 +RA FEW006 SCT021 BKN024 16/15 Q1008
    LSZH 092220Z AUTO 27004KT 220V320 6000 2100S +RA FEW003 BKN008 BKN013 16/15 Q1008
  • MMCT: Chichen-Itza, Mexico
    MMCT 092056Z 28011KT 1 1/4SM +RA BKN020CB BKN100 OVC250 29/24 A2980 RMK 8/363 HZY
    MMCT 092125Z 18014KT 4SM BKN020CB OVC100 28/23 A2978 RMK 8/36/ HZY +RAE18
  • MUCC: Cayo Coco / Jardines Del Ray, Cuba
    MUCC 092050Z 23010KT 200V270 5000 +RA OVC010CB 24/23 Q1014
  • MUHA: Habana, Cuba
    MUHA 092056Z 19010KT 160V230 1000 R06/0600V2100U R24/P2000D +SHRA BKN018TCU 25/24 Q1013
  • ROMD: Minamidaitojima, Japan
    ROMD 092112Z AUTO 24008KT 1000 +RA BR OVC002 //////CB 26/26 Q1010 RMK A2985 RI027 CB W-OHD-NE MOV E
    ROMD 092143Z AUTO 29009KT 240V330 0800 +RA FG FEW002 BKN005 BKN010 //////CB 24/24 Q1011 RMK A2986 RI100 CB OHD MOV NE
    ROMD 092200Z AUTO 29011KT 260V340 0600 +RA FG SCT002 BKN015 BKN017 //////CB 25/24 Q1011
    ROMD 092202Z AUTO 29012KT 260V340 0500 +RA FG FEW002 SCT005 BKN009 //////CB 25/24 Q1011 RMK A2987 RI100 CB OHD MOV E
    ROMD 092211Z AUTO 27010G21KT 240V310 4100 +RA BR FEW002 SCT008 BKN012 //////CB 25/24 Q1011 RMK A2987 RI016 CB OHD MOV UNKNOWN
    ROMD 092215Z AUTO 27010KT 230V300 1300 +RA BR BKN002 BKN008 BKN019 //////CB 25/25 Q1011 RMK A2987 RI025 CB OHD MOV UNKNOWN
  • RORK: Kitadaito Island, Japan
    RORK 092102Z AUTO 29010KT 3000 +RA BR FEW002 BKN005 BKN009 //////CB 25/25 Q1010 RMK A2985 RI017 CB OHD MOV UNKNOWN
    RORK 092106Z AUTO 28010KT 250V320 1100 +RA BR FEW002 SCT005 BKN007 //////CB 25/25 Q1010 RMK A2985 RI037 CB OHD MOV UNKNOWN
    RORK 092114Z AUTO 29013KT 0800 +RA FG FEW002 SCT009 BKN018 //////TCU 25/25 Q1010 RMK A2984 RI060 TCU OHD MOV E
    RORK 092131Z AUTO 27015KT 2500 +RA BR FEW003 SCT022 BKN060 //////CB 25/24 Q1010 RMK A2984 RI020 CB 5KM W AND 10KM NE MOV E
    RORK 092141Z AUTO 27012KT 2100 +RA BR FEW003 SCT028 BKN035 //////CB 25/25 Q1010 RMK A2985 RI021 CB SW-OHD-NE MOV E
    RORK 092216Z AUTO 26013KT 2500 +RA BR SCT003 BKN005 BKN070 //////CB 25/24 Q1011 RMK A2986 RI021 CB OHD MOV UNKNOWN
  • SKGO: UNKNOWN,
    SKGO 092112Z 15008KT 100V170 9000 4000SE +RA VCSH VCTS BKN048CB BKN064 OVC095 26/20 Q1014
  • VOGA: UNKNOWN,
    VOGA 092300Z 33002KT 2000 +RA OVC005 24/24 Q1007 NOSIG
    VOGA 092330Z 33006KT 0600 R28/P2000 +RA SCT005 FEW020TCU OVC080 24/24 Q1007 TRMPO 1200 RA
  • VTBO: Trat/Khao Saming, Thailand
    VTBO 092300Z 20010KT 1500 +RA FEW016 SCT018 OVC080 27/26 Q1008
    VTBO 100000Z 23010KT 2000 +RA FEW016 SCT018 OVC080 27/25 Q1009
  • VVVD: Vo Dat, Vietnam
    VVVD 100030Z AUTO VRB02KT 3300 VCTS +RA FEW002/// SCT014/// BKN022/// 25/25 Q1007 RESHGR NOSIG
  • WBKK: Kota Kinabalu, Malaysia
    WBKK 092355Z VRB09KT 1000 +RA FEW010 FEW016CB SCT030 26/25 Q1012 NOSIG
    WBKK 100000Z 22011KT 160V330 1000 +RA FEW010 FEW016CB SCT030 25/25 Q1013 NOSIG
  • ZSNB: Lishe, China
    ZSNB 100000Z 10003MPS 050V130 3500 +SHRA BR SCT004 BKN016 OVC050 19/19 Q1009
4 stations reporting unknown precipitation type

  • EYPA: Palanga Intl., Lithuania
    EYPA 100020Z AUTO 24005KT 150V300 9999 UP VCTS BKN060/// 13/11 Q1005
  • KBFA: UNKNOWN,
    KBFA 100015Z AUTO 32007G15KT 10SM UP OVC024 10/08 A2985 RMK AO2
    KBFA 100035Z AUTO 32008KT 10SM UP BKN021 OVC026 10/08 A2985 RMK AO2
  • KHRF: Hamilton, MT, United States
    KHRF 092355Z AUTO 13005G10KT 10SM UP FEW070 BKN090 21/14 A2991 RMK AO2
    KHRF 092355Z AUTO 13005G10KT 10SM UP FEW070 BKN090 21/14 A2991 RMK AO2 Hamilton
  • KOBE: Okeechobee, FL, United States
    KOBE 092355Z AUTO 00000G11KT 10SM UP BKN055 BKN070 28/25 A2985 RMK AO2 LTG DSNT NE


0 stations reporting ice accretion in the past 1 hour

0 stations reporting ice accretion in the past 3 hours

0 stations reporting ice accretion in the past 6 hours

0 stations reporting hourly snow depth increase (SNINCR) of 3+"

0 stations reporting hourly snow depth increase (SNINCR) of 2"

0 stations reporting hourly snow depth increase (SNINCR) of 1"

0 stations reporting hourly (melted) precip total of 3" or greater

0 stations reporting hourly (melted) precip total of 2-2.99"

0 stations reporting hourly (melted) precip total of 1-1.99"

10 stations reporting hourly (melted) precip total of 0.5-0.99"

  • KAVL: Asheville, Asheville Regional Airport, NC, United States [0.70in]
    KAVL 092345Z 32005KT 1 1/2SM -RA BR SCT017 BKN035 OVC060 20/19 A2988 RMK AO2 PK WND 35026/2302 WSHFT 2251 LTG DSNT E P0070 T02000189
    KAVL 092347Z 33004KT 3SM -RA BR FEW017 BKN035 BKN046 20/19 A2989 RMK AO2 PK WND 35026/2302 WSHFT 2251 LTG DSNT E P0070 T02000189
    KAVL 092354Z 35003KT 10SM SCT015 BKN035 OVC085 20/19 A2988 RMK AO2 PK WND 35026/2302 WSHFT 2251 LTG DSNT E RAE54 SLP097 P0070 60071 T02000194 10267 20200 53007
  • KBVX: Batesville, AR, United States [0.67in]
    KBVX 092225Z AUTO 05006KT 3SM RA BR BKN012 BKN025 OVC048 21/21 A2994 RMK AO2 P0052 TSNO
    KBVX 092227Z AUTO VRB05KT 4SM TSRA BR SCT010 BKN016 OVC048 21/21 A2994 RMK AO2 LTG DSNT E-SW TSB26 P0054
    KBVX 092246Z AUTO 04005KT 10SM VCTS -RA SCT014 SCT024 BKN060 21/21 A2994 RMK AO2 LTG DSNT E-SW TSB26 P0067
    KBVX 092249Z AUTO 04007KT 9SM RA SCT014 BKN024 BKN060 21/21 A2994 RMK AO2 LTG DSNT E-SW TSB26E47 P0067
  • KCNM: Carlsbad, Cavern City Air Terminal Airport, NM, United States [0.79in]
    KCNM 092149Z AUTO 12014G34KT 050V170 1/2SM +TSRA FEW030 SCT075 BKN100 21/18 A2997 RMK AO2 PK WND 14038/2136 WSHFT 2100 LTG DSNT N-E RAB25 TSB05E20B23 P0065
    KCNM 092153Z AUTO 02016G26KT 1/2SM +TSRA SCT024 SCT070 BKN085 21/17 A2998 RMK AO2 PK WND 14038/2136 WSHFT 2100 LTG DSNT NW-E RAB25 TSB05E20B23 PRESRR SLP100 P0079 T02110172
  • KLBB: Lubbock, Lubbock Intl Arpt, TX, United States [0.85in]
    KLBB 092353Z 12014KT 1SM R17R/P6000FT TSRA BR BKN032CB OVC070 20/18 A2997 RMK AO2 PK WND 15058/2307 WSHFT 2255 SFC VIS 5 LTG DSNT ALQDS RAB08 TSB20 SLP105 OCNL LTGIC ALQDS TS ALQDS MOV NW SLO P0085 60085 T02000178 10344 201 $
  • KMLC: McAlester, McAlester Regional Airport, OK, United States [0.72in]
    KMLC 092119Z AUTO VRB06KT 1SM +TSRA BR BKN036 OVC065 22/20 A2990 RMK AO2 LTG DSNT ALQDS P0061 T02220200
    KMLC 092125Z AUTO VRB04KT 2SM +TSRA BR BKN036 BKN070 BKN110 22/20 A2991 RMK AO2 LTG DSNT ALQDS P0064 T02220200
    KMLC 092143Z AUTO 14006KT 6SM -TSRA BR FEW050 SCT070 OVC110 22/21 A2990 RMK AO2 LTG DSNT SE-W P0070 T02170206
    KMLC 092153Z AUTO 6SM -TSRA BR FEW055 FEW070 BKN110 23/21 A2989 RMK AO2 LTG DSNT E-SW SLP113 P0072 T02280206
  • KOQT: Oak Ridge, TN, United States [0.73in]
    KOQT 092110Z AUTO 30003KT 1/2SM -RA FG SCT015 BKN026 BKN070 22/19 A2984 RMK AO2 P0073 T02170194
    KOQT 092112Z AUTO 00000KT 2SM -RA BR SCT017 BKN026 BKN070 22/20 A2984 RMK AO2 P0073 T02220200
    KOQT 092115Z AUTO 00000KT 9SM -RA SCT015 BKN075 22/20 A2984 RMK AO2 P0073 T02220200
    KOQT 092153Z AUTO 25003KT 10SM BKN055 OVC070 23/20 A2985 RMK AO2 RAE18 SLP096 P0073 T02280200
  • KSJT: San Angelo, Mathis Field, TX, United States [0.52in]
    KSJT 092051Z 12016G26KT 1 1/4SM VCTS +RA BKN032 OVC080 22/19 A2987 RMK AO2 PK WND 09035/1955 LTG DSNT E-S RAB23 TSB13E29 SLP092 P0052 60052 T02220189 53004
  • KTYS: Knoxville, McGhee Tyson Airport, TN, United States [0.72in]
    KTYS 092147Z 33016G22KT 300V010 1SM -TSRA BR BKN024CB BKN031 OVC080 23/22 A2982 RMK AO2 WSHFT 2122 LTG DSNT NE AND E RAB06 TSB15 OCNL LTGIC VC W TS VC W MOV E P0072 RVRNO
    KTYS 092149Z 35012G22KT 3SM -TSRA BR BKN024CB BKN031 OVC080 22/21 A2983 RMK AO2 WSHFT 2122 LTG DSNT NE RAB06 TSB15 OCNL LTGIC VC W TS VC W MOV E P0072
    KTYS 092153Z 34009G22KT 10SM -TSRA BKN024CB BKN031 OVC080 22/21 A2983 RMK AO2 WSHFT 2122 LTG DSNT NE RAB06 TSB15 SLP090 OCNL LTGIC VC W TS VC W MOV E P0072 T02170206
  • KUZA: Rock Hill, SC, United States [0.68in]
    KUZA 100032Z AUTO 23005KT 1 1/4SM TSRA BR FEW007 OVC033 22/21 A2977 RMK AO2 LTG DSNT SW AND W TSB18 P0068 T02170211
  • KVJI: Abingdon, VA, United States [0.64in]
    KVJI 092055Z AUTO 31005KT 1 1/2SM RA BKN015 BKN026 OVC050 18/17 A2984 RMK AO2 VIS 1/2V5 P0064 60064 T01800170
0 stations reporting 3 or 6 hourly (melted) precip total of 5" or greater

0 stations reporting 3 or 6 hourly (melted) precip total of 4-4.99"

0 stations reporting 3 or 6 hourly (melted) precip total of 3-3.99"

1 station reporting 3 or 6 hourly (melted) precip total of 2-2.99"

  • MMMX: Mexico City / Licenci, Mexico [2.05in]
    MMMX 092250Z 21014KT 5SM TSRA BKN015CB OVC070 18/15 A3024 NOSIG RMK 60205 8/96/ HZY OCNL LTGICCG OVR STN


0 stations reporting tornado, funnel cloud or waterspout

0 stations reporting mammatus cloud

3 stations reporting hail

  • KDEN: Denver, Denver Intl Arpt, CO, United States [1/4 inch]
    KDEN 092201Z 15028G38KT 8SM R35L/5500VP6000FT -TSRAGR FEW015 BKN060CB BKN085 BKN140 18/14 A3011 RMK AO2 PK WND 15038/2158 GRB00 FRQ LTGICCC S TS S MOV STNRY GR 1/4 P0000 T01830139
    KDEN 092201Z COR 15028G38KT 8SM R35L/5500VP6000FT -TSRAGR FEW015 BKN060CB BKN085 BKN140 18/14 A3011 RMK AO2 PK WND 15038/2158 GRB00 FRQ LTGICCC S TS S MOV STNRY GR 1/4 P0000 T01830139
  • KFCS: Fort Carson, CO, United States [1/2 inch]
    KFCS 092216Z 16012KT 10SM TSRAGR FEW043 23/12 A3014 RMK AO2A RAB14 GR 1/2 SLP147 $
  • KMWN: Mount Washington, NH, United States [unreported size]
    KMWN 092147Z 28038G53KT 0SM SHRAGR FG VV000 03/03 RMK SHRAB24SHGRB27 GR LESS THAN 1/4
0 stations reporting thundersnow

0 stations reporting thundersleet

0 stations reporting thunder with freezing rain

85 stations reporting thunder with rain

  • CYHU: Saint Hubert Airport, Canada
    CYHU 092048Z AUTO 28012G19KT 9SM TSRA FEW028 SCT048 SCT060 OVC075 15/12 A2945 RMK WSHFT AT 2034Z PRESRR PCPN 0.5MM PAST HR SLP974 DENSITY ALT 700FT
  • CYSN: Saint Catharines Airport, Canada
    CYSN 092100Z 20006KT 12SM -TSRA FEW010 SCT025CB BKN046 OVC090 15/14 A2962 RMK CF1CB4SC3AC1 CF TR CB E-S MOVG E SLP034 DENSITY ALT 800FT
  • DFFD: Ouagadougou, Burkina Faso
    DFFD 092100Z 15024G35KT 4000 SQ TSRA FEW026 FEW040CB 26/23 Q1011
  • FEFF: Bangui, Central African Republic
    FEFF 092100Z VRB03KT 8000 -TSRA BKN010 FEW033CB 22/21 Q1016 RERA
  • GABS: Bamako / Senou, Mali
    GABS 092330Z 06011KT 010V080 9999 -TSRA FEW025 FEW030CB 30/19 Q1013
    GABS 100000Z 28005KT 230V350 9999 -TSRA FEW025 FEW030CB 28/23 Q1011
    GABS 100030Z 12012KT 9999 -TSRA SCT025 FEW030CB 29/22 Q1012
  • K04V: Saguache, Saguache Municipal Airport, CO, United States
    K04V 092215Z AUTO 26017G22KT 10SM -TSRA OVC100 21/05 A3024 RMK AO2 LTG DSNT E AND NW
  • K4BM: Wilkerson Pass, CO, United States
    K4BM 092215Z AUTO 07008KT 5SM -TSRA BKN034 BKN060 OVC085 11/09 A3055 RMK AO2 LTG DSNT N SE AND S
  • KABQ: Albuquerque, Albuquerque Intl Arpt, NM, United States
    KABQ 092252Z 07009KT 10SM -TSRA SCT100CB BKN150 OVC250 26/10 A3007 RMK AO2 PK WND 09033/2222 WSHFT 2217 RAB39 SLP099 OCNL LTGICCG NE TS NE MOV NE OCNL LTGICCG DSNT S P0000 T02560100
  • KADM: Ardmore, Ardmore Municipal Airport, OK, United States
    KADM 100035Z AUTO 00000G13KT 1/2SM -TSRA BR BKN005 BKN033 OVC055 22/20 A2988 RMK AO2
  • KAPA: Denver, Centennial Airport, CO, United States
    KAPA 092353Z 17018G26KT 10SM -TSRA BKN060CB BKN070 OVC110 17/14 A3013 RMK AO2 PK WND 16032/2335 RAB14 SLP155 CONS LTGICCG OHD TS OHD MOV SE P0001 60001 T01670139 10278 20161 50002
  • KATS: Artesia, Artesia Municipal Airport, NM, United States
    KATS 092315Z AUTO 22008G20KT 2 1/2SM TSRA SCT002 BKN012 OVC046 18/17 A3000 RMK AO2
    KATS 092335Z AUTO 33021G31KT 5SM -TSRA FEW006 SCT020 BKN032 21/16 A2999 RMK AO2 LTG DSNT ALQDS
  • KBJC: Broomfield / Jeffco, CO, United States
    KBJC 092321Z 32016KT 10SM -TSRA SCT031 BKN090 22/15 A3014 RMK LTG DSNT S
    KBJC 092356Z 32012G17KT 10SM -TSRA SCT031 BKN090 19/17 A3012 RMK LTG DSNT N THRU S
  • KBKF: Aurora, Buckley AFB Airport, CO, United States
    KBKF 092206Z 10020G27KT 10SM -TSRA BKN050 BKN065 BKN130 22/13 A3012 RMK AO2A SLP132
    KBKF 092258Z 17025G29KT 10SM -TSRA SCT014 BKN050 BKN065 BKN210 17/14 A3011 RMK AO2A PK WND 18029/52 SLP140 P0003 T01710138
  • KBVX: Batesville, AR, United States
    KBVX 092227Z AUTO VRB05KT 4SM TSRA BR SCT010 BKN016 OVC048 21/21 A2994 RMK AO2 LTG DSNT E-SW TSB26 P0054
  • KBYI: Burley, Burley Municipal Airport, ID, United States
    KBYI 092201Z AUTO 22012G23KT 10SM -TSRA BKN100 23/15 A2991 RMK AO2 LTG DSNT ALQDS RAB00 TSB2155 PRESRR P0000 T02280150
    KBYI 092234Z AUTO 22009KT 1 3/4SM -TSRA BR OVC100 18/17 A2993 RMK AO2 LTG DSNT ALQDS RAB00 TSB2155 P0005 T01830172
  • KBZN: Bozeman, Gallatin Field, MT, United States
    KBZN 092310Z 21016G24KT 10SM -TSRA BKN095 19/11 A3002 RMK AO2 LTG DSNT SE-W RAB00 TSB04 PRESRR P0000 T01940111
  • KC08: UNKNOWN,
    KC08 092315Z AUTO 18018KT 10SM -TSRA FEW060 BKN065 BKN090 17/10 A3031 RMK AO2 LTG DSNT S AND NW
  • KCNM: Carlsbad, Cavern City Air Terminal Airport, NM, United States
    KCNM 092125Z AUTO 12021G32KT 3SM -TSRA SCT080 BKN095 27/16 A2993 RMK AO2 PK WND 12037/2113 WSHFT 2100 LTG DSNT N-SE RAB25 TSB05E20B23 P0000 T02670161
    KCNM 092208Z AUTO 05011G22KT 3SM -TSRA SCT026 BKN110 22/17 A2991 RMK AO2 WSHFT 2144 LTG DSNT NW-E PRESFR P0021 T02220167
  • KCSM: Clinton, Clinton-Sherman Airport, OK, United States
    KCSM 092306Z AUTO 03017KT 10SM -TSRA FEW075 OVC100 28/17 A2994 RMK AO2 LTG DSNT E TSB05 P0001 T02780172 $
  • KCVS: Cannon AFB / Clovis, NM, United States
    KCVS 092114Z 09012G18KT 6SM TSRA BKN065 SCT110 BKN160 31/15 A2998 RMK TSB2056 RAB2116 SLP085 $
    KCVS 092233Z 09022G28KT 5SM -TSRA BKN055 OVC080 21/16 A3002 RMK PRESRR RAB33 SLP111 RWY22 $
    KCVS 092301Z 11019G22KT 10SM -TSRA SCT085 BKN150 20/17 A3003 RMK PK WND 09030/2201 RAB2239 SLP116 P0000 60005 T02000172 10331 20190 53001 FZRANO $
    KCVS 092355Z 09016G23KT 10SM -TSRA FEW060 BKN075 OVC110 19/16 A3005 RMK RAE02RAB19 SLP126 P0002 60006 T01930157 10331 20190 53016 $
  • KCWN: Cheyenne Moutain, CO, United States
    KCWN 092341Z AUTO 17008KT 10SM -TSRA BKN026 OVC100 17/14 A3023 RMK AO2 RAB01 TSB41 CIG 026V100 SLP072 $
    KCWN 100022Z AUTO 18009KT 10SM -TSRA FEW036 SCT060 BKN085 OVC140 17/13 A3024 RMK AO2 RAB00E13RAB22 TSE2356TSB15 SLP070 $
  • KDEN: Denver, Denver Intl Arpt, CO, United States
    KDEN 092153Z 14028G41KT 10SM -TSRA FEW015 BKN060CB BKN085 BKN140 19/13 A3011 RMK AO2 PK WND 14043/2136 RAB44 TSE26B28 SLP133 FRQ LTGICCC S TS S MOV STNRY P0000 T01890133
    KDEN 092201Z 15028G38KT 8SM R35L/5500VP6000FT -TSRAGR FEW015 BKN060CB BKN085 BKN140 18/14 A3011 RMK AO2 PK WND 15038/2158 GRB00 FRQ LTGICCC S TS S MOV STNRY GR 1/4 P0000 T01830139
    KDEN 092201Z COR 15028G38KT 8SM R35L/5500VP6000FT -TSRAGR FEW015 BKN060CB BKN085 BKN140 18/14 A3011 RMK AO2 PK WND 15038/2158 GRB00 FRQ LTGICCC S TS S MOV STNRY GR 1/4 P0000 T01830139
    KDEN 092216Z 15020G36KT 7SM TSRA SCT047 BKN060CB BKN140 BKN200 17/14 A3013 RMK AO2 PK WND 15038/2158 GRB00E14 OCNL LTGICCG OHD TS OHD MOV N VIS LWR W P0007 T01720144
  • KDLN: Dillon, Dillon Airport, MT, United States
    KDLN 092100Z AUTO VRB05KT 8SM -TSRA BKN090 OVC110 17/11 A3001 RMK AO2 LTG DSNT S AND SW TSB2054 P0000 T01670111 $
  • KEKS: Ennis, MT, United States
    KEKS 092215Z AUTO 35014KT 4SM -TSRA FEW015 SCT043 BKN060 16/11 A3012 RMK AO2
    KEKS 092235Z AUTO VRB04KT 3SM -TSRA FEW005 SCT019 BKN037 15/11 A3018 RMK AO2
  • KFCS: Fort Carson, CO, United States
    KFCS 092214Z 16012KT 10SM TSRA FEW043 23/12 A3014 RMK AO2A RAB14 SLP147 $
    KFCS 092216Z 16012KT 10SM TSRAGR FEW043 23/12 A3014 RMK AO2A RAB14 GR 1/2 SLP147 $
  • KGNB: Granby, CO, United States
    KGNB 092335Z AUTO 00000KT 10SM -TSRA SCT065 OVC100 19/M10 A3024 RMK AO2 LTG DSNT E SE AND NW T01921103
  • KHBR: Hobart, Hobart Municipal Airport, OK, United States
    KHBR 092153Z AUTO 03011KT 4SM TSRA 28/20 A2992 RMK AO2 LTG DSNT NW RAB43 TSB48 SLPNO P0003 T02780200 $
    KHBR 100006Z AUTO 06013KT 4SM TSRA 28/19 A2991 RMK AO2 LTG DSNT NE-S RAB00 TSB00 P0003 T02780194 $
  • KINK: Wink, Winkler County Airport, TX, United States
    KINK 092104Z AUTO 16021G27KT 10SM -TSRA FEW070 FEW090 36/09 A2982 RMK AO2 PK WND 16027/2103 WSHFT 2044 LTG DSNT W AND NW RAB2056 P0000 T03560089
    KINK 092134Z AUTO 20035G50KT 1 1/2SM -TSRA OVC120 30/11 A2983 RMK AO2 PK WND 21050/2132 WSHFT 2101 LTG DSNT W-NE RAB2056E05B16 P0000 T03000111
    KINK 092141Z AUTO 23027G55KT 1SM -TSRA FEW008 BKN120 29/11 A2984 RMK AO2 PK WND 21055/2137 WSHFT 2101 VIS 1/2V5 LTG DSNT W-NE RAB2056E05B16 P0000 T02940111
    KINK 092145Z AUTO 21028G55KT 3SM -TSRA FEW010 BKN120 28/13 A2984 RMK AO2 PK WND 21055/2137 WSHFT 2101 LTG DSNT W-NE RAB2056E05B16 P0000 T02830128
  • KLAM: Los Alamos, NM, United States
    KLAM 092235Z AUTO -TSRA BKN080 OVC095 21/05 A3021 RMK AO2 RAB2151 TSB2224 P0003 T02150052 $
  • KLBB: Lubbock, Lubbock Intl Arpt, TX, United States
    KLBB 092153Z 02017G32KT 10SM -TSRA BKN065CB BKN090 BKN130 27/15 A2994 RMK AO2 PK WND 03044/2128 WSHFT 2110 LTG DSNT N AND NW RAB53 TSB14 SLP081 OCNL LTGICCG NW-NE TS NW-NE MOV W SLO P0000 T02670150 $
    KLBB 092320Z 12022G41KT 2 1/2SM TSRA BLDU SCT047CB BKN060 20/18 A3001 RMK AO2 PK WND 15058/2307 WSHFT 2255 TWR VIS 3 LTG DSNT E AND SW RAB08 TSB20 OCNL LTGIC ALQDS TS ALQDS MOV NW T02000178 PNO $
    KLBB 092320Z COR 12022G41KT 2 1/2SM TSRA BR SCT047CB BKN060 20/18 A3001 RMK AO2 PK WND 15058/2307 WSHFT 2255 TWR VIS 3 LTG DSNT E AND SW RAB08 TSB20 OCNL LTGIC ALQDS TS ALQDS MOV NW T02000178 PNO $
    KLBB 092353Z 12014KT 1SM R17R/P6000FT TSRA BR BKN032CB OVC070 20/18 A2997 RMK AO2 PK WND 15058/2307 WSHFT 2255 SFC VIS 5 LTG DSNT ALQDS RAB08 TSB20 SLP105 OCNL LTGIC ALQDS TS ALQDS MOV NW SLO P0085 60085 T02000178 10344 201 $
    KLBB 100001Z 08010KT 8SM -TSRA SCT029 BKN070CB OVC120 21/18 A2997 RMK AO2 LTG DSNT ALQDS OCNL LTGIC ALQDS TS ALQDS MOV NW P0001 T02060183 $
  • KLRF: Little Rock AFB, AR, United States
    KLRF 092251Z 01017G24KT 6SM -TSRA FEW017 SCT022 BKN030 OVC050 27/21 A2983 RMK AO2A RAB51 TSB23 SLP101 $
    KLRF 092347Z 36007KT 5SM -TSRA BKN009 BKN080 OVC160 24/22 A2986 RMK LTG DSNT NW-NE AND SE-S CIG 009V080 BKN009 V SCT CIG 008 RWY07 SLP112 $
  • KMAF: Midland, Midland Intl Arpt, TX, United States
    KMAF 092253Z VRB05G16KT 8SM -TSRA FEW041 BKN075 OVC095 31/16 A2985 RMK AO2 PK WND 24027/2237 LTG DSNT ALQDS RAB27 TSB39 SLP056 P0008 T03060156
  • KMDD: Midland, Midland Airpark, TX, United States
    KMDD 092355Z AUTO 15014G22KT 10SM -TSRA SCT060 SCT070 SCT085 28/18 A2988 RMK AO2 LTG DSNT ALQDS P0003 T02760182 10371 20246 403710246 60003
    KMDD 100015Z AUTO 09017G29KT 10SM -TSRA CLR 26/20 A2986 RMK AO2 LTG DSNT NE AND S T02580197
  • KMLC: McAlester, McAlester Regional Airport, OK, United States
    KMLC 092143Z AUTO 14006KT 6SM -TSRA BR FEW050 SCT070 OVC110 22/21 A2990 RMK AO2 LTG DSNT SE-W P0070 T02170206
    KMLC 092153Z AUTO 6SM -TSRA BR FEW055 FEW070 BKN110 23/21 A2989 RMK AO2 LTG DSNT E-SW SLP113 P0072 T02280206
  • KOMK: Omak, Omak Airport, WA, United States
    KOMK 100037Z AUTO 32005KT 8SM -TSRA OVC090 19/15 A2992 RMK AO2 LTG DSNT S RAB23 TSB31 P0004 T01890150
  • KONM: Socorro Municipal, NM, United States
    KONM 092215Z AUTO 10019G29KT 10SM -TSRA SCT050 SCT070 BKN095 28/03 A3005 RMK AO2 LTG DSNT NW THRU E T02790031
  • KORK: North Little Rock, AR, United States
    KORK 092315Z AUTO 32024KT 5SM -TSRA BR SCT021 BKN060 OVC075 24/22 A2988 RMK AO2
  • KPIH: Pocatello, Pocatello Regional Airport, ID, United States
    KPIH 092053Z 14013G29KT 10SM -TSRA FEW027 SCT049 BKN090 21/13 A2993 RMK AO2 PK WND 15042/2043 WSHFT 2034 RAB37 TSB29 SLP094 P0022 60022 T02110128 56013
    KPIH 092345Z 33008KT 10SM R21/5500VP6000FT -TSRA BKN032 BKN090 OVC110 17/12 A2996 RMK AO2 PK WND 25053/2325 WSHFT 2325 LTG DSNT ALQDS RAB24 PRESRR P0043 T01670122
    KPIH 092353Z 24017G25KT 10SM -TSRA SCT036 OVC100 18/13 A2999 RMK AO2 PK WND 25053/2325 WSHFT 2325 LTG DSNT ALQDS RAB24 PRESRR SLP121 P0044 60072 T01780133 10317 20167 53029
    KPIH 100024Z 30013KT 10SM -TSRA OVC090 17/13 A2999 RMK AO2 PK WND 22027/0006 WSHFT 0004 LTG DSNT NE-SE P0001 T01720133
  • KPMU: Batesville, MS, United States
    KPMU 092250Z AUTO 25007KT 7SM -TSRA CLR 28/24 A2981 RMK AO2 LTG DSNT ALQDS
  • KROW: Roswell, NM, United States
    KROW 092240Z 1 1/4SM -TSRA BLDU FEW023 SCT070 OVC090 24/16 A2997 RMK AO2 PK WND 05031/2200 WSHFT 2221 LTG DSNT ALQDS RAB16 TSB03 P0000 T02390156
    KROW 092257Z 21008KT 3SM -TSRA BLDU SCT037 SCT065 OVC095 23/14 A2995 RMK AO2 LTG DSNT NE AND S AND SW P0008 T02280144
    KROW 092327Z 11013G28KT 10SM -TSRA BLDU FEW095 BKN120 24/15 A3000 RMK AO2 PK WND 06028/2315 WSHFT 2304 LTG DSNT ALQDS TSE13B21 PRESRR P0008 T02390150
  • KSAF: Santa Fe, NM, United States
    KSAF 092227Z 06017G24KT 10SM -TSRA BKN085 24/09 A3014 RMK AO2 PK WND 05030/2213 WSHFT 2149 LTG DSNT NW-E RAB19 TSB21 P0000 T02390089
  • KSKX: Taos Municipal Airport, NM, United States
    KSKX 092156Z AUTO 33009KT 10SM TSRA FEW044 OVC095 14/11 A3028 RMK AO2 WSHFT 2100 LTG DSNT ALQDS RAB21 SLP204 P0007 T01390111
  • KSMN: Salmon, Lemhi County Airport, ID, United States
    KSMN 092313Z AUTO 33018G34KT 8SM -TSRA SQ FEW048 OVC090 20/11 A2991 RMK AO2 PK WND 30034/2307 LTG DSNT W-NE RAB05 PRESRR P0000
  • KSRC: Searcy, Searcy Municipal Airport, AR, United States
    KSRC 092308Z AUTO 04011G18KT 10SM -TSRA SCT021 BKN027 23/20 A2989 RMK AO2 LTG DSNT ALQDS TSB02RAB2257 P0000 $
  • KTAD: Trinidad, Perry Stokes Airport, CO, United States
    KTAD 092319Z AUTO 16012G20KT 10SM -TSRA SCT080 23/13 A3011 RMK AO2 RAB13 TSB13 P0000 T02330133
  • KTMB: Miami, Kendall-Tamiami Executive Airport, FL, United States
    KTMB 100024Z 27007KT 7SM TSRA SCT027 BKN037 OVC050 A2993 RMK AO2 LTG DSNT S AND SW RAB11 TSB18 P0003 $
  • KTUP: Tupelo, Tupelo Regional Airport, MS, United States
    KTUP 092253Z 28006KT 2SM TSRA FEW035 BKN110 28/26 A2981 RMK AO2 LTG DSNT ALQDS RAB34 TSB19 SLP090 P0007 T02830256 $
    KTUP 092312Z 16009G16KT 3SM TSRA SCT035 BKN080 OVC110 27/23 A2982 RMK AO2 LTG DSNT ALQDS P0008 T02670233 $
    KTUP 092319Z VRB03G16KT 2SM TSRA BR SCT033 BKN045 OVC100 26/23 A2983 RMK AO2 VIS 1 1/2V3 LTG DSNT ALQDS P0011 T02560233 $
    KTUP 092330Z 27008KT 10SM -TSRA FEW033 BKN070 BKN090 26/23 A2982 RMK AO2 LTG DSNT ALQDS P0012 T02610233 $
    KTUP 092353Z 27008KT 7SM -TSRA FEW036 SCT070 BKN110 26/24 A2982 RMK AO2 LTG DSNT ALQDS SLP091 P0012 60019 T02560239 10350 20256 55005 $
    KTUP 100019Z 29009G17KT 250V320 1 1/2SM TSRA BR SCT038 SCT065 OVC095 25/23 A2985 RMK AO2 LTG DSNT E-SW P0006 T02500228 $
    KTUP 100033Z VRB06G27KT 1SM TSRA BKN037 BKN070 OVC085 23/20 A2986 RMK AO2 PK WND 34027/0024 LTG DSNT E-SW P0047 T02280200 $
  • KTYS: Knoxville, McGhee Tyson Airport, TN, United States
    KTYS 092121Z 21014KT 10SM -TSRA BKN024CB BKN031 OVC080 25/21 A2978 RMK AO2 LTG DSNT W-NE RAB06 TSB15 OCNL LTGIC VC W TS VC W MOV E P0000 T02500206
    KTYS 092129Z 28010KT 1 3/4SM -TSRA BKN024CB BKN031 OVC080 24/22 A2981 RMK AO2 LTG DSNT N AND NE RAB06 TSB15 PRESRR OCNL LTGIC VC W TS VC W MOV E P0001 T02440217
    KTYS 092133Z 32012KT 3/4SM -TSRA BR BKN024CB BKN031 OVC080 24/22 A2982 RMK AO2 WSHFT 2117 LTG DSNT N-E RAB06 TSB15 PRESRR OCNL LTGIC VC W TS VC W MOV E P0006 T02390217 RVRNO
    KTYS 092138Z 36012G20KT 1/4SM -TSRA FG BKN024CB BKN031 OVC080 23/22 A2981 RMK AO2 WSHFT 2122 LTG DSNT NE AND E RAB06 TSB15 OCNL LTGIC VC W TS VC W MOV E P0024 T02280217 RVRNO
    KTYS 092147Z 33016G22KT 300V010 1SM -TSRA BR BKN024CB BKN031 OVC080 23/22 A2982 RMK AO2 WSHFT 2122 LTG DSNT NE AND E RAB06 TSB15 OCNL LTGIC VC W TS VC W MOV E P0072 RVRNO
    KTYS 092149Z 35012G22KT 3SM -TSRA BR BKN024CB BKN031 OVC080 22/21 A2983 RMK AO2 WSHFT 2122 LTG DSNT NE RAB06 TSB15 OCNL LTGIC VC W TS VC W MOV E P0072
    KTYS 092153Z 34009G22KT 10SM -TSRA BKN024CB BKN031 OVC080 22/21 A2983 RMK AO2 WSHFT 2122 LTG DSNT NE RAB06 TSB15 SLP090 OCNL LTGIC VC W TS VC W MOV E P0072 T02170206
  • KUZA: Rock Hill, SC, United States
    KUZA 100032Z AUTO 23005KT 1 1/4SM TSRA BR FEW007 OVC033 22/21 A2977 RMK AO2 LTG DSNT SW AND W TSB18 P0068 T02170211
  • LIPL: Brescia / Ghedi, Italy
    LIPL 092055Z 34012KT 3500 A TSRA BR SCT018CB SCT025 20/20 Q1005
    LIPL 092055Z 34012KT 3500 TSRA BR SCT018CB SCT025 20/20 Q1005 RMK OVC VIS MIN 3500 WIND THR31 34010KT WIND THR13 34011KT YLO
    LIPL 092155Z 31005KT 3500 A TSRA BR SCT022CB SCT025 20/20 Q1004
    LIPL 092155Z 31005KT 3500 TSRA BR SCT022CB SCT025 20/20 Q1004 RMK OVC VIS MIN 3500 WIND THR31 31005KT WIND THR13 32005KT YLO
  • LIPO: Brescia / Montichia, Italy
    LIPO 092220Z AUTO 01005KT 300V040 9999 -TSRA BKN064/// 21/19 Q1004
    LIPO 092250Z AUTO 27009KT 210V290 7000 TSRA ///////// 19/19 Q1005
    LIPO 100020Z 03008KT 9999 TSRA SCT030CB 17/17 Q1004
  • LIPS: Treviso / Istrana, Italy
    LIPS 092334Z 27004KT 9999 -TSRA SCT020CB BKN035TCU 20/19 Q1005 RMK OVC VIS MIN 9999 WIND THR26 /////KT WIND THR08 25004KT BLU
    LIPS 092355Z 35002KT 9999 -TSRA SCT020CB SCT035TCU 20/19 Q1004
    LIPS 092355Z 35002KT 9999 -TSRA SCT020CB SCT035TCU 20/19 Q1004 RMK OVC VIS MIN 9999 WIND THR26 /////KT WIND THR08 03002KT BLU
  • LIRP: Pisa / S. Giusto, Italy
    LIRP 092215Z 25004KT 9999 -TSRA FEW015 FEW020CB BKN030 22/21 Q1004
    LIRP 092245Z 27008KT 9999 -TSRA FEW015 FEW020CB BKN030 22/21 Q1005
  • LIRQ: Firenze / Peretola, Italy
    LIRQ 092320Z VRB05KT 9999 -TSRA SCT030CB BKN050 20/17 Q1005
  • LIVE: Resia Pass, Italy
    LIVE 092055Z 00000KT 8000 TSRA FEW015 BKN025 12/11 Q1011
    LIVE 092055Z 00000KT 8000 TSRA FEW015 BKN025 12/11 Q1011 RMK OVC VIS MIN 8000
  • LIVP: Paganella, Italy
    LIVP 092055Z 19008KT 0900 -TSRA FG VV/// 09/07 Q1015
    LIVP 092055Z 19008KT 0900 -TSRA FG VV/// 09/07 Q1015 RMK MON INVIS VAL INVIS VIS MIN 0900
    LIVP 092155Z 00000KT 0900 -TSRA FG VV/// 09/07 Q1015
    LIVP 092155Z 00000KT 0900 -TSRA FG VV/// 09/07 Q1015 RMK MON INVIS VAL INVIS VIS MIN 0900
    LIVP 092255Z 00000KT 0400 -TSRA FG VV/// 08/08 Q1015
    LIVP 092255Z 00000KT 0400 -TSRA FG VV/// 08/08 Q1015 RMK MON INVIS VAL INVIS VIS MIN 0400
  • LKMT: Ostrava / Mosnov, Czech Republic
    LKMT 092230Z 23007G18KT 190V280 7000 TSRA SCT015CB BKN039 18/16 Q1006
  • LQMO: Mostar, Serbia and Montenegro
    LQMO 092330Z VRB04KT 9999 3500N -TSRA FEW020 FEW035CB SCT050 BKN070 22/18 Q1011
  • LSGG: Geneve-Cointrin, Switzerland
    LSGG 092050Z AUTO 24005KT 9999 TSRA OVC015 FEW///CB 17/16 Q1008 RETS
    LSGG 092120Z AUTO 23005KT 200V270 9000 -TSRA BKN017 FEW///TCU 17/16 Q1008
  • MHTG: Tegucigalpa, Honduras
    MHTG 092200Z 16007KT 9999 -TSRA FEW032CB FEW034CB BKN080 26/20 Q1016 A3000 NOSIG
    MHTG 092200Z COR 16007KT 9999 -TSRA FEW032TCU FEW034CB BKN080 26/20 Q1016 A3000 NOSIG
  • MMMX: Mexico City / Licenci, Mexico
    MMMX 092218Z 36014KT 5SM -TSRA BKN020CB OVC080 23/12 A3022
    MMMX 092224Z 34015KT 4SM TSRA BKN020CB OVC080 21/14 A3023 NOSIG RMK 8/96/ HZY OCNL LTGICCG N AND SW RAB24
    MMMX 092242Z 19010KT 5SM TSRA BKN015CB OVC070 18/14 A3024 NOSIG RMK 8/96/ HZY OCNL LTGICCG OVR STN RAB42
    MMMX 092250Z 21014KT 5SM TSRA BKN015CB OVC070 18/15 A3024 NOSIG RMK 60205 8/96/ HZY OCNL LTGICCG OVR STN
    MMMX 092301Z 24012KT 6SM -TSRA BKN015CB OVC080 18/14 A3023 NOSIG RMK 8/96/ HZY OCNL LTGICCG W SW RAB01
  • MMQT: Queretaro, Qro., Mexico
    MMQT 092057Z RTD 36009KT 4SM -TSRA BKN020CB OVC250 23/14 A3021 RMK 60055 8/903 TSB20 -RAB35
  • MMSM: Santa Lucia Air Force Base, Mexico
    MMSM 092340Z 01017G30KT 7SM TSRA BKN020CB OVC080 19/14 A3023 RMK 8/96/ TSB30 VSBY LWR N
    MMSM 100012Z 07016KT 4SM TSRA BKN020CB OVC080 16/14 A3027 RMK 8/96/ OCNL LTGCC N
    MMSM 100039Z 10015KT 6SM -TSRA BKN020CB OVC080 16/13 A3027 RMK 8/96/
  • MNJU: Juigalpa, Nicaragua
    MNJU 092100Z 09004KT 8000 TSRA BKN020CB 26/24 Q1009 2AC080 CB/ALRD
    MNJU 092200Z 00000KT 8000 TSRA SCT020CB SCT080 25/24 Q1009 CB/ALRD
    MNJU 092300Z 00000KT 8000 TSRA SCT020CB SCT080 25/24 Q1009 CB/ALRD
  • MPDA: David, Panama
    MPDA 092100Z 16004KT 4000NE TSRA SCT012CB BKN080 29/26 Q1010
    MPDA 092200Z 35005KT 8000 -TSRA SCT003 SCT015CB OVC080 27/26 Q1009
  • MROC: Juan Santamaria, Costa Rica
    MROC 092100Z 27005KT 240V300 4000 -TSRA BKN005CB 23/22 A3004 NOSIG
    MROC 092300Z COR VRB05KT 5000 -TSRA BKN005CB SCT030 22/21 A3006 NOSIG
  • MRPV: Tobias Bolanos International, Costa Rica
    MRPV 092100Z 32006KT 4000 -TSRA BR BKN010CB 22/22 A3003 NOSIG
  • MSLP: El Salvador Intl. Airport / Comalapa, El Salvador
    MSLP 100023Z VRB02KT 9999 8000NE TSRA FEW012 BKN020 BKN037CB 29/25 Q1009
  • MUCM: Camaguey Aeropuerto, Cuba
    MUCM 092050Z VRB03KT 6000 -TSRA SCT018CB BKN020 26/23 Q1015
    MUCM 092150Z 30007KT 6000 -TSRA SCT018CB BKN025 24/23 Q1015
  • MUSC: Santa Clara, Cuba
    MUSC 092216Z 19009KT 160V220 5000 TSRA OVC018CB 25/23 Q1014 RMK CB AT I AND II QUAD
  • OICC: Kermanshah, Iran
    OICC 092350Z 27012KT 8000 TSRA FEW035CB SCT040 BKN090 22/07 Q1016 A3001
    OICC 100000Z 27012KT 8000 TSRA FEW035CB SCT040 BKN090 22/07 Q1016 A3001
  • OIHH: Hamadan, Iran
    OIHH 092100Z 27010KT 9000 TSRA FEW035CB SCT040 20/04 Q1020 A3014
  • OITT: Tabriz, Iran
    OITT 100030Z 15010KT 8000 TSRA FEW030 BKN032CB 21/10 Q1015 A2999
  • SBBE: Belem Aeroporto, Brazil
    SBBE 092100Z 06010KT 2000 -TSRA BKN008 BKN020 FEW025CB BKN070 26/25 Q1011
    SBBE 092117Z 13014G24KT 1100 -TSRA BKN007 BKN016 FEW025CB BKN070 25/23 Q1012 RETS
    SBBE 092200Z 11008KT 4000 -TSRA BKN013 BKN018 FEW023CB BKN070 25/24 Q1012 RETS
  • SBEG: Eduardo Gomes International, Brazil
    SBEG 100023Z 04004KT 9000 TSRA SCT020 FEW030CB SCT090 25/25 Q1013
  • SBMN: Manaus Aeroporto, Brazil
    SBMN 100039Z 06007KT 3000 TSRA BKN008 FEW020CB 26/24 Q1014
  • SKMD: Medellin / Olaya Herrera, Colombia
    SKMD 092100Z 18005KT 080V240 9999 -TSRA SCT030CB BKN060 21/21 Q1020 RMK CB/S/SW
  • SMZO: Paramaribo, Suriname
    SMZO 092100Z 14008KT 9999 -TSRA SCT008 FEW012CB BKN020 29/26 Q1011 NOSIG
  • UDYZ: Zvartnots, Armenia
    UDYZ 092130Z VRB01KT 9999 -TSRA BKN043CB 18/15 Q1012
    UDYZ 092200Z 06003KT 030V130 9999 -TSRA BKN043CB 18/16 Q1012 NOSIG
  • VVCI: Cat Bi, Viet Nam
    VVCI 092130Z 02006KT 7000 TSRA FEW008 BKN015 SCT028CB 27/26 Q1005 NOSIG
    VVCI 092200Z 05005KT 9999 -TSRA FEW011 BKN014 FEW027CB 27/26 Q1004 NOSIG
    VVCI 092330Z VRB04KT 5000 TSRA FEW006 SCT010 BKN027CB 27/26 Q1005
    VVCI 100000Z 14004KT 100V190 5000 TSRA BKN010 BKN027CB 26/25 Q1006
  • WAQQ: Tarakan/Juwata, Indonesia
    WAQQ 092130Z 09003KT 1000 TSRA FEW014CB SCT015 25/25 Q1011
    WAQQ 092200Z 07004KT 7000 -TSRA FEW014CB SCT015 24/24 Q1011
  • WBKK: Kota Kinabalu, Malaysia
    WBKK 100025Z VRB04KT 4000 TSRA FEW010 FEW016CB SCT030 25/25 Q1013 RETSRA NOSIG
    WBKK 100030Z VRB03KT 4000 TSRA FEW010 FEW016CB SCT030 25/25 Q1013 RETSRA NOSIG
  • WBKL: Labuan, Malaysia
    WBKL 092300Z 00000KT 9000 -TSRA FEW010 FEW016CB SCT030 26/25 Q1013
  • WBSB: Brunei Airport, Brunei
    WBSB 092100Z 11002KT 8000 -TSRA SCT014 FEW015CB BKN150 25/25 Q1011 NOSIG
    WBSB 092130Z 12003KT 8000 -TSRA SCT014 FEW015CB BKN150 25/25 Q1012 NOSIG
    WBSB 092200Z 08004KT 8000 -TSRA FEW005 FEW015CB SCT020 BKN150 24/24 Q1011
    WBSB 092230Z 25003KT 8000 -TSRA FEW005 FEW015CB BKN150 24/24 Q1012
  • WMKL: Langkawi, Malaysia
    WMKL 092300Z VRB02KT 6000 TSRA FEW010 FEW017CB SCT025 23/22 Q1010 RETSRA


0 stations reporting blizzard conditions

0 stations reporting near-blizzard conditions


2 stations reporting visibility of zero

  • KMWN: Mount Washington, NH, United States
    KMWN 092051Z 28031G42KT 0SM FG VV000 04/04 RMK
    KMWN 092147Z 28038G53KT 0SM SHRAGR FG VV000 03/03 RMK SHRAB24SHGRB27 GR LESS THAN 1/4
    KMWN 092247Z 28052G55KT 0SM FG VV000 03/03 RMK SHGRE2155SHRAE30
    KMWN 092347Z 29041G48KT 0SM FG VV000 02/02 RMK SHRAB00E15 60027 931002 10039 20017
  • LIVP: Paganella, Italy
    LIVP 092355Z 19008KT 0000 -RA FG VV/// 08/08 Q1013 RETS
    LIVP 092355Z 19008KT 0000 -RA FG VV/// 08/08 Q1013 RETS RMK MON INVIS VAL INVIS VIS MIN 0000
10 stations reporting visibility 1/8 mile or less, but not zero

  • CYCA: Cartwright Man, Canada [1/8mile]
    CYCA 092200Z AUTO 01008KT 1/8SM -RA FG VV002 07/07 A2951 RMK SLP996
  • ESNS: Skelleftea Airport, Sweden [200meters]
    ESNS 092220Z AUTO 10003KT 0200 R10/0900D R28/P2000N FG NCD 06/06 Q0995
  • KAVX: Avalon, Catalina Airport, CA, United States [<1/4mile]
    KAVX 092051Z AUTO 27006KT M1/4SM FG VV001 13/13 A3001 RMK AO2 SLP157 T01330133 51005
    KAVX 092151Z AUTO 25004KT M1/4SM FG VV002 14/14 A3000 RMK AO2 SLP153 T01390139
    KAVX 100010Z AUTO 28007KT M1/4SM FG VV002 13/13 A2997 RMK AO2 T01330133
  • KC99: Dakota Hill, CO, United States [<1/4mile]
    KC99 100000Z AUTO 00000KT M1/4SM TS OVC003 09/09 A3047 RMK AO2 LTG DSNT E SW AND W
  • RJOA: Hiroshima Airport, Japan [100meters]
    RJOA 092135Z AUTO 14003KT 0100 R10/0150VP2000D FG SCT001 17/16 Q1010 RMK A2984
    RJOA 092137Z AUTO 14003KT 0100 R10/0150VP2000D FG BKN001 17/16 Q1010 RMK A2985
  • UHWW: Vladivostok, Russia [200meters]
    UHWW 092100Z 08002MPS 0200 R25L/0250N FG VV001 12/12 Q1006 R25L/19//70 NOSIG RMK QBB040 MT OBSC QFE754
    UHWW 092130Z 06002MPS 0200 R25L/0275N FG VV001 12/12 Q1006 R25L/0///70 NOSIG RMK QBB040 MT OBSC QFE754
  • UIII: Irkutsk, Russia [150meters]
    UIII 092200Z VRB01MPS 0150 0100SE R12/0200N FG SCT001 13/13 Q1006 R12/190055 NOSIG RMK QBB050 MT OBSC QFE712/0950
    UIII 092230Z 19002MPS 0150 FG SCT001 14/14 Q1006 R12/190055 NOSIG RMK QBB050 MT OBSC QFE712/0950
  • ULOO: Pskov, Russia [150meters]
    ULOO 092100Z 13001MPS 0200 0100NE R19/0400D FG NSC 09/09 Q1005 NOSIG RMK QFE750
    ULOO 092200Z 13001MPS 0200 R19/0650N FG FEW042 08/08 Q1005 NOSIG RMK QFE750
    ULOO 100044Z VRB01MPS 0150 R19/0300D FG BKN001 09/09 Q1005 NOSIG RMK QBB050 OBST OBSC QFE750
  • UOOO: Alykel, Russia [100meters]
    UOOO 092100Z 32004MPS 0100 0050S R01/0100N FZFG VV001 M02/M02 Q1013 R01/12//60 NOSIG RMK QBB040 QFE745/0994
    UOOO 092200Z 03003MPS 0100 R01/0150N FZFG VV001 M02/M02 Q1013 R01/12//60 NOSIG RMK QBB050 QFE745/0994
    UOOO 092230Z 36004MPS 0100 R01/0150N FZFG VV001 M01/M01 Q1014 R01/12//60 NOSIG RMK QBB050 QFE746/0994
    UOOO 092300Z 01004MPS 0100 0050NE R01/0150N FZFG VV001 M01/M01 Q1014 R01/12//60 NOSIG RMK QBB050 QFE746/0994
    UOOO 092330Z 03004MPS 0100 R01/0150N FZFG VV001 M01/M01 Q1014 R01/12//60 NOSIG RMK QBB050 QFE746/0995
    UOOO 100000Z 02004MPS 0100 0050NE R01/0150N FZFG VV001 M01/M01 Q1014 R01/12//60 NOSIG RMK QBB050 QFE746/0995
    UOOO 100030Z 03004MPS 0100 R01/0150N FZFG VV001 M01/M01 Q1014 R01/12//60 NOSIG RMK QBB050 QFE746/0994
  • YSTW: Tamworth Airport, Australia [150meters]
    YSTW 092100Z AUTO 09004KT 0150 FG OVC001 03/03 Q1022 RF00.0/000.0
    YSTW 092130Z AUTO 15003KT 0150 FG OVC001 04/04 Q1023 RF00.0/000.2
    YSTW 092200Z AUTO 19004KT 0150 FG OVC001 04/03 Q1023 RF00.0/000.2
    YSTW 092300Z AUTO 13003KT 0200 FG OVC001 06/06 Q1024 RF00.0/000.2
1 station reporting visibility 75 miles or greater

  • KEDW: Edwards AFB, CA, United States [90miles]
    KEDW 092055Z 24013KT 90SM FEW190 SCT250 32/02 A2986 RMK AO2A SLP087 T03210022 58001
    KEDW 092126Z 23015G21KT 90SM FEW190 SCT250 33/01 A2985 RMK AO2A
    KEDW 092155Z 23015G22KT 90SM FEW190 SCT250 33/02 A2985 RMK AO2A SLP084 T03330022
    KEDW 092220Z 24018G25KT 90SM FEW180 SCT250 34/02 A2985 RMK AO2A
    KEDW 092255Z 23021G27KT 90SM FEW180 SCT250 33/03 A2984 RMK AO2A PK WND 23029/54 SLP080 T03260026
2 stations reporting visibility 50-74 miles

  • CYQL: Lethbridge, Alta., Canada [60miles]
    CYQL 092100Z 14009G16KT 110V180 60SM FEW060 SCT150 BKN270 20/06 A3004 RMK CU1AC2CI4 SLP178 DENSITY ALT 4200FT
    CYQL 092200Z 17006G15KT 100V200 60SM FEW060 FEW150 BKN280 20/06 A3002 RMK SC1AC2CI5 SC TR SLP171 DENSITY ALT 4300FT
    CYQL 092300Z 13009KT 100V180 60SM FEW120 BKN270 21/08 A2999 RMK AC2CI5 SLP160 DENSITY ALT 4400FT
    CYQL 100000Z 12010KT 60SM SCT120 BKN270 21/07 A2996 RMK AC3CI4 SLP149 DENSITY ALT 4500FT
  • CYXJ: Fort St John, B. C., Canada [60miles]
    CYXJ 092100Z 00000KT 60SM FEW014 OVC045 11/06 A3005 RMK SC2SC6 SLP197
    CYXJ 092200Z 08005KT 060V120 60SM OVC036 11/07 A3003 RMK SC8 SLP191
    CYXJ 092300Z 12004KT 090V160 60SM OVC030 11/07 A3002 RMK SC8 SLP187
    CYXJ 100000Z 14006KT 60SM OVC042 12/06 A3000 RMK SC8 SLP180


0 stations reporting aurora

0 stations reporting solar/lunar eclipse


0 stations reporting inside a hurricane eye

0 stations reporting aircraft mishap

13 stations reporting bird hazard on the runway

  • SPCL: Pucallpa, Peru
    SPCL 092100Z 02003KT 9999 BKN020 32/21 Q1011 RMK BIRD HAZARD RWY 02/20 PP000
    SPCL 092200Z 35005KT 9999 SCT020 31/22 Q1011 RMK TX32.6 BIRD HAZARD RWY 02/20 PP000
    SPCL 092300Z 35005KT 9999 SCT020 29/23 Q1011 RMK BIRD HAZARD RWY 02/20 PP000
    SPCL 100000Z 23002KT 9999 SCT020 28/23 Q1011 RMK BIRD HAZARD RWY 02/20 PP000
  • SPHI: Chiclayo, Peru
    SPHI 092100Z 18014KT CAVOK 22/15 Q1013 RMK BIRD HAZARD RWY 19/01 PP000
    SPHI 092200Z 18013KT CAVOK 21/14 Q1013 RMK TX24.3 BIRD HAZARD RWY 19/01 PP000
    SPHI 092300Z 18013KT CAVOK 21/14 Q1013 RMK BIRD HAZARD RWY 19/01 PP000
    SPHI 100000Z 18012KT CAVOK 21/14 Q1013 RMK BIRD HAZARD RWY 19/01 PP000
  • SPHO: Ayacucho, Peru
    SPHO 092100Z VRB04KT CAVOK 22/M12 Q1026 RMK BIRD HAZARD RWY 02/20 PP000
    SPHO 092200Z VRB02KT CAVOK 22/M11 Q1025 RMK TX23.1 BIRD HAZARD RWY 02/20 PP000
    SPHO 092300Z VRB03KT CAVOK 20/M09 Q1026 RMK BIRD HAZARD RWY 02/20 PP000
  • SPJC: Lima/J Chavez, Peru
    SPJC 092100Z 18007KT 150V210 9999 SCT010 OVC020 19/13 Q1013 NOSIG RMK BIRD HAZARD RWY 16 PP000
    SPJC 092200Z 20007KT 9999 FEW010 BKN020 18/13 Q1013 NOSIG RMK TX19.4 BIRD HAZARD RWY 16 PP000
  • SPJJ: Jauja, Peru
    SPJJ 092100Z 05009KT CAVOK 20/M00 Q1030 RMK BIRD HAZARD RWY13/31 PP000
    SPJJ 092200Z 05006KT CAVOK 19/01 Q1030 RMK BIRD HAZARD RWY13/31 TX21.4 PP000
    SPJJ 092300Z 35006KT CAVOK 14/01 Q1030 RMK BIRD HAZARD RWY13/31 PP000
  • SPJL: Juliaca, Peru
    SPJL 092100Z 08003KT 020V170 CAVOK 17/M14 Q1033 RMK BIRD HAZARD RWY 12/30 PP000
    SPJL 092200Z 13013KT CAVOK 13/M04 Q1033 RMK TX18.2 BIRD HAZARD RWY 12/30 PP000
    SPJL 092300Z 14007KT CAVOK 11/M06 Q1034 RMK BIRD HAZARD RWY 12/30 PP000
  • SPME: Tumbes, Peru
    SPME 092100Z 36007KT 9999 FEW015 SCT050 25/21 Q1011 RMK BIRD HAZARD RWY 32/14 PP000
    SPME 092200Z 33004KT 9999 FEW015 BKN040 25/21 Q1011 RMK BIRD HAZARD RWY 32/14 PP000
    SPME 092300Z 31003KT 9999 BKN017 25/21 Q1011 RMK BIRD HAZARD RWY 32/14 TX 27.9 PP000
    SPME 100000Z 28005KT 9999 BKN017 24/21 Q1012 RMK BIRD HAZARD RWY 32/14 PP000
  • SPMS: Yurimaguas, Peru
    SPMS 092100Z 01004KT 9999 FEW020 SCT100 28/24 Q1011 RMK BIRD HAZARD RWY 09/27 PP000
  • SPSO: Pisco, Peru
    SPSO 092100Z 26006KT 8000 OVC019 18/16 Q1014 RMK BR BIRD HAZARD RWY 22/04 PP000
    SPSO 092200Z 27004KT 240V310 8000 OVC021 18/16 Q1014 RMK BR TX18.4 BIRD HAZARD RWY 22/04 PP000
    SPSO 092300Z 21007KT 9999 OVC020 19/15 Q1015 RMK BIRD HAZARD RWY 22/04 PP000
  • SPTU: Puerto Maldonado, Peru
    SPTU 092100Z 30004KT 260V340 CAVOK 32/22 Q1010 RMK BIRD HAZARD RWY 01/19 PP000
    SPTU 092200Z VRB02KT CAVOK 30/24 Q1010 RMK TX33.0 BIRD HAZARD RWY 01/19 PP000
    SPTU 092300Z 00000KT CAVOK 27/23 Q1009 RMK BIRD HAZARD RWY 01/19 PP000
  • SPUR: Piura, Peru
    SPUR 092100Z 20010KT CAVOK 27/16 Q1012 RMK BIRD HAZARD RWY 19/01 PP000
    SPUR 092200Z 21012KT CAVOK 26/16 Q1012 RMK BIRD HAZARD RWY 19/01 TX27.6 PP000
    SPUR 092300Z 20011KT CAVOK 25/16 Q1012 RMK BIRD HAZARD RWY 19/01 PP000
    SPUR 100000Z 20010KT CAVOK 24/15 Q1013 RMK BIRD HAZARD RWY 19/01 PP000
  • SPYL: Talara, Peru
    SPYL 092100Z /////KT CAVOK 24/17 Q1012 RMK BIRD HAZARD RWY 17/35 PP000
    SPYL 092200Z /////KT CAVOK 23/17 Q1012 RMK TX26.2 BIRD HAZARD RWY 17/35 PP000
    SPYL 092300Z /////KT CAVOK 22/17 Q1012 RMK BIRD HAZARD RWY 17/35 PP000
  • SPZO: Cuzco, Peru
    SPZO 092100Z 05005KT 010V100 9999 NSC 21/M12 Q1029 NOSIG RMK BIRD HAZARD RWY 10/28 PP000
    SPZO 092130Z 35007KT 320V040 9999 NSC 20/M11 Q1029 NOSIG RMK BIRD HAZARD RWY 10/28
    SPZO 092200Z 36007KT 320V040 9999 NSC 19/M10 Q1029 NOSIG RMK TX22.4 BIRD HAZARD RWY 10/28 PP000
    SPZO 092230Z 35006KT 310V020 9999 NSC 17/M10 Q1030 NOSIG RMK BIRD HAZARD RWY 10/28
    SPZO 092300Z 33006KT 210V010 9999 NSC 15/M09 Q1030 NOSIG RMK BIRD HAZARD RWY 10/28 PP000
    SPZO 092330Z 32004KT 250V040 9999 NSC 14/M08 Q1031 NOSIG RMK BIRD HAZARD RWY 10/28
    SPZO 100000Z VRB04KT 9999 NSC 12/M08 Q1032 NOSIG RMK BIRD HAZARD RWY 10/28 PP000
    SPZO 100030Z VRB02KT 9999 NSC 11/M07 Q1032 NOSIG RMK BIRD HAZARD RWY 10/28
0 stations reporting volcanic ash

1 station reporting ice crystals/diamond dust

  • NZSP: Amundsen-Scott Stn, Antarctica
    NZSP 092350Z 03013KT 4800 IC BLSN OVC010 M52/ A2848 RMK CLN AIR 35015KT ALL WNDS GRID
0 stations reporting blowing spray

7 stations reporting dust or duststorm

  • FTTJ: Ndjamena, Chad
    FTTJ 092300Z 14018KT 3500 TS DU FEW050CB 26/19 Q1009
  • KLBB: Lubbock, Lubbock Intl Arpt, TX, United States
    KLBB 092124Z 03031G42KT 2SM R17R/3500VP6000FT TS BLDU SCT065CB BKN090 BKN110 28/15 A2994 RMK AO2 PK WND 03042/2123 WSHFT 2110 LTG DSNT N AND NE TSB14 OCNL LTGICCG NW-NE TS NW-NE MOV W T02780150 $
    KLBB 092134Z 03021G44KT 6SM TS BLDU BKN070CB BKN095 BKN140 25/16 A2995 RMK AO2 PK WND 03044/2128 WSHFT 2110 LTG DSNT NE TSB14 OCNL LTGICCG NW-NE TS NW-NE MOV W T02500156 $
    KLBB 092309Z 15035G58KT 3SM R17R/5000VP6000FT -RA BLDU SQ FEW045 SCT065 24/17 A2997 RMK AO2 PK WND 15058/2307 WSHFT 2255 LTG DSNT E-SW RAB08 PRESRR OCNL LTGIC DSNT E-S AND NW CB DSNT E-S AND NW MOV NW P0000 T02440167 $
    KLBB 092320Z 12022G41KT 2 1/2SM TSRA BLDU SCT047CB BKN060 20/18 A3001 RMK AO2 PK WND 15058/2307 WSHFT 2255 TWR VIS 3 LTG DSNT E AND SW RAB08 TSB20 OCNL LTGIC ALQDS TS ALQDS MOV NW T02000178 PNO $
  • KQGX: AL DHAFRA, United Arab Emirates
    KQGX 092355Z 13006KT 6000 DU SKC 31/16 A2960 RMK SLPNO WND DATA ESTMD ALSTG ESTMD $
  • KROW: Roswell, NM, United States
    KROW 092134Z 06023G32KT 3SM BLDU FEW007 FEW075 28/15 A2992 RMK AO2 PK WND 05032/2131 WSHFT 2120 LTG DSNT N-E T02830150
    KROW 092151Z 07024G35KT 3SM BLDU FEW005 FEW075 26/15 A2993 RMK AO2 PK WND 09035/2142 WSHFT 2120 LTG DSNT N-E SLP070 T02560150
    KROW 092201Z 06023G31KT 7SM VCTS BLDU FEW005 SCT100 SCT120 27/13 A2994 RMK AO2 PK WND 05031/2200 LTG DSNT N-E T02670133
    KROW 092209Z 09013G31KT 10SM TS BLDU FEW028 SCT070 BKN090 27/13 A2995 RMK AO2 PK WND 05031/2200 LTG DSNT ALQDS TSB03 T02670133
    KROW 092240Z 1 1/4SM -TSRA BLDU FEW023 SCT070 OVC090 24/16 A2997 RMK AO2 PK WND 05031/2200 WSHFT 2221 LTG DSNT ALQDS RAB16 TSB03 P0000 T02390156
    KROW 092247Z 19011G21KT 1/2SM +TSRA BLDU SCT032 BKN075 OVC095 23/13 A2996 RMK AO2 PK WND 05031/2200 WSHFT 2221 LTG DSNT ALQDS RAB16 TSB03 P0026
    KROW 092251Z 21012G21KT 1SM +TSRA BLDU SCT039 BKN075 OVC095 24/13 A2995 RMK AO2 PK WND 05031/2200 WSHFT 2221 LTG DSNT ALQDS RAB16 TSB03 SLP082 P0036 T02390133
    KROW 092257Z 21008KT 3SM -TSRA BLDU SCT037 SCT065 OVC095 23/14 A2995 RMK AO2 LTG DSNT NE AND S AND SW P0008 T02280144
    KROW 092318Z 06020G28KT 10SM VCTS -RA BLDU FEW055 BKN100 25/14 A2997 RMK AO2 PK WND 06028/2315 WSHFT 2304 LTG DSNT ALQDS TSE13 P0008 T02500139
    KROW 092327Z 11013G28KT 10SM -TSRA BLDU FEW095 BKN120 24/15 A3000 RMK AO2 PK WND 06028/2315 WSHFT 2304 LTG DSNT ALQDS TSE13B21 PRESRR P0008 T02390150
    KROW 092340Z 19015KT 10SM VCTS -RA BLDU BKN110 23/16 A3002 RMK AO2 PK WND 06028/2315 WSHFT 2326 LTG DSNT E-SW TSE13B21E36 P0008 T02280156
    KROW 092351Z 17018G28KT 10SM VCTS -RA BLDU OVC110 21/16 A3001 RMK AO2 PK WND 19028/2345 WSHFT 2332 LTG DSNT E-S TSE13B21E36 SLP107 P0008 60044 T02060156 10350 20206 53024
    KROW 092356Z 13015G24KT 9SM -RA BLDU OVC110 22/15 A3002 RMK AO2 WSHFT 2338 LTG DSNT E-S P0000 T02170150
  • KSLC: Salt Lake City, Salt Lake City Intl Arpt, UT, United States
    KSLC 092358Z 17022G37KT 6SM HZ BLDU FEW009 SCT080 BKN120 BKN240 34/06 A2983 RMK AO2 PK WND 19035/2356 T03390056 $
  • OMAL: Al Ain Intl Arpt, United Arab Emirates
    OMAL 100000Z 16009KT 5000 DU NSC 31/20 Q1005 NOSIG
  • ORNI: Al-ashraf, Iraq
    ORNI 092200Z 18005KT 5000 DU FEW040 37/06 Q0997
    ORNI 092300Z 19003KT 5000 DU FEW040 37/06 Q0997
2 stations reporting sand or sandstorm

  • DAUH: Hassi-Messaoud, Algeria
    DAUH 092100Z 12004KT 090V170 3000 SA FEW040TCU SCT100 39/04 Q1007
    DAUH 092200Z 16004KT 130V200 3000 SA FEW040 SCT100 39/04 Q1007
    DAUH 092300Z 21004KT 150V230 4000 SA FEW040 SCT100 38/04 Q1006
  • DAUO: El Oued, Algeria
    DAUO 092100Z 34005KT 4000 SA FEW040 SCT200 35/06 Q1006
0 stations reporting well-developed dust/sand whirls

13 stations reporting smoke

  • CYCQ: Chetwynd Airport, Canada
    CYCQ 092100Z 14003KT 35SM OVC035 13/04 A3003 RMK SC8 FU DIST MT W CVCTV CLD EMBD SLP188
    CYCQ 092200Z 20003KT 120V250 35SM OVC035 13/05 A3002 RMK SC8 FU DIST MT W CVCTV CLD EMBD SLP182 DENSITY ALT 2200FT
    CYCQ 092300Z 06005KT 040V190 35SM OVC040 13/04 A3000 RMK SC8 FU DIST MT W CVCTV CLD EMBD SLP178 DENSITY ALT 2200FT
    CYCQ 100000Z VRB02KT 35SM OVC040 13/04 A2999 RMK SC8 FU DIST MT W CVCTV CLD EMBD SLP172 DENSITY ALT 2300FT
  • KQD3: UNKNOWN,
    KQD3 092255Z COR 00000KT 9000 FU CLR 32/28 A2964 RMK AO2A SLP021 WND DATA ESTMD T03220281 404050300 COR 2255
  • KTLH: Tallahassee, FL, United States
    KTLH 092053Z 10SM FEW000 FEW250 37/14 A2983 RMK AO2 SLP101 FU FEW000 T03720144 58021
  • MMMY: Monterrey / Gen Maria, Mexico
    MMMY 092341Z 01015G28KT 6SM SCT030CB 29/20 A2978 RMK SLP082 52004 954 8/900 FULYR NE
  • MMOX: Oaxaca / Xoxocotlan, Mexico
    MMOX 092149Z 32005KT 8SM BKN050 OVC120 28/11 A3010 RMK 8/52/ FUHZ
    MMOX 092249Z 18010KT 8SM BKN050 OVC120 25/14 A3012 RMK 8/52/ FUHZ
    MMOX 100013Z RTD 16005KT 8SM BKN050 OVC120 23/15 A3013 RMK SLP085 52010 912 8/52/ FUHZ
  • MMPQ: Palenque, Mexico
    MMPQ 092143Z 36010KT 3SM HZ FU SCT030TCU 36/26 A2965 RMK 8/200
    MMPQ 092241Z 36012KT 3SM HZ FU BKN030CB 35/27 A2963 RMK 8/300
    MMPQ 092347Z 36010KT 3SM HZ FU OVC030CB 33/26 A2964 RMK 8/3// PCPN 2&3 QUAD BINOVC
  • MMVA: Villahermosa, Mexico
    MMVA 092045Z 04012KT 3SM FU SCT018TCU SCT070 36/27 A2977 RMK SLP080 57023 973 8/220
    MMVA 092148Z 35010KT 3SM FU SCT018TCU SCT070 35/26 A2976 RMK 8/220
    MMVA 092243Z 35013KT 3SM FU SCT060 34/26 A2974 RMK 8/010
    MMVA 092351Z 04010KT 3SM FU SCT060 32/25 A2974 RMK SLP069 57011 988 8/010
  • OPMT: Multan, Pakistan
    OPMT 100000Z 00000KT 4000 FU FEW100 28/16 Q1001 NOSIG
    OPMT 100030Z 00000KT 4000 FU FEW120 28/16 Q1001 NOSIG
  • OPST: Sambrial, Pakistan
    OPST 100000Z 00000KT 4000 FU NSC 26/16 Q1002 NOSIG RH55
  • PABI: Delta Junction/Ft Greely, AK, United States
    PABI 092053Z 00000KT 10SM SCT150 OVC200 23/M02 A2976 RMK AO2 SLP073 CIG THN FU DSNT W-E ACSL DSNT NW T02281022 56006
    PABI 092153Z VRB03KT 10SM BKN150 OVC200 23/M02 A2975 RMK AO2 SLP071 CIG THN LGT FU ALQDS T02281017
    PABI 092253Z 29003KT 10SM BKN150 OVC200 23/M01 A2974 RMK AO2 SLP066 CIG THN LGT FU ALQDS T02331011
    PABI 092353Z VRB03KT 10SM BKN150 OVC200 24/M02 A2972 RMK AO2 SLP061 CIG THN FU ALQDS T02391017 10244 20211 58014
  • PAFA: Fairbanks, Fairbanks Intl Arpt, AK, United States
    PAFA 092153Z 09004KT 10SM FEW070 SCT120 BKN160 25/03 A2970 RMK AO2 SLP059 FU DSNT ALQDS T02500033 $
    PAFA 092253Z 00000KT 10SM FEW080 SCT110 BKN160 26/04 A2968 RMK AO2 SLP053 FU FEW080 FU E-S T02560039 $
    PAFA 092353Z 21003KT 10SM SCT070 BKN160 26/04 A2968 RMK AO2 SLP051 FU SCT070 FU E-SW T02560044 10261 20211 58009 $
  • PAOR: Northway, Northway Airport, AK, United States
    PAOR 092053Z 00000KT 6SM HZ FU BKN120 23/01 A2977
    PAOR 092053Z 00000KT 6SM HZ FU BKN120 23/01 A2977 RMK AO2 SLP072 6//// T02280006 57007 PNO $
    PAOR 092153Z VRB04KT 5SM HZ FU FEW100 BKN120 23/01 A2975
    PAOR 092153Z VRB04KT 5SM HZ FU FEW100 BKN120 23/01 A2975 RMK AO2 SLP066 T02330006 PNO $
    PAOR 092253Z 20006KT 5SM HZ FU FEW100 SCT120 24/01 A2973
    PAOR 092253Z 20006KT 5SM HZ FU FEW100 SCT120 24/01 A2973 RMK AO2 SLP063 FU ALQDS T02390011 PNO $
    PAOR 092353Z 18009G15KT 4SM HZ FU SCT100 BKN120 24/01 A2971
    PAOR 092353Z 18009G15KT 4SM HZ FU SCT100 BKN120 24/01 A2971 RMK AO2 SLP058 FU ALQDS 6//// T02390011 10250 20194 56017 PNO $
  • SBCR: Corumba, Brazil
    SBCR 092100Z 04006KT 5000 FU HZ NSC 31/16 Q1010


Stations falling into 5 or more extreme categories

Stations falling into 4 extreme categories

  • KLBB: Lubbock, Lubbock Intl Arpt, TX, United States
        Wind, Hourly Precip Total, Thunderstorm, Dust/Duststorm
Stations falling into 3 extreme categories

  • KDEN: Denver, Denver Intl Arpt, CO, United States
        Wind, Hail, Thunderstorm
  • KMWN: Mount Washington, NH, United States
        Wind, Hail, Visibility
  • KUZA: Rock Hill, SC, United States
        Precipitation Type/Intensity, Hourly Precip Total, Thunderstorm
  • NZCM: Williams Field, Antarctica
        Wind, Pressure, Pressure Change
Stations falling into 2 extreme categories

  • KATS: Artesia, Artesia Municipal Airport, NM, United States
        Wind, Thunderstorm
  • KAVL: Asheville, Asheville Regional Airport, NC, United States
        Precipitation Type/Intensity, Hourly Precip Total
  • KBJC: Broomfield / Jeffco, CO, United States
        Thunderstorm, Visibility
  • KBVX: Batesville, AR, United States
        Hourly Precip Total, Thunderstorm
  • KCNM: Carlsbad, Cavern City Air Terminal Airport, NM, United States
        Hourly Precip Total, Thunderstorm
  • KFCS: Fort Carson, CO, United States
        Hail, Thunderstorm
  • KGYR: Goodyear Municipal, AZ, United States
        Temperature, Visibility
  • KINK: Wink, Winkler County Airport, TX, United States
        Wind, Thunderstorm
  • KMAF: Midland, Midland Intl Arpt, TX, United States
        Wind, Thunderstorm
  • KMDD: Midland, Midland Airpark, TX, United States
        Wind, Thunderstorm
  • KMLC: McAlester, McAlester Regional Airport, OK, United States
        Hourly Precip Total, Thunderstorm
  • KOQT: Oak Ridge, TN, United States
        Precipitation Type/Intensity, Hourly Precip Total
  • KORK: North Little Rock, AR, United States
        Dewpoint, Thunderstorm
  • KPIH: Pocatello, Pocatello Regional Airport, ID, United States
        Wind, Thunderstorm
  • KQD3: UNKNOWN,
        Dewpoint, Smoke
  • KROW: Roswell, NM, United States
        Thunderstorm, Dust/Duststorm
  • KSJT: San Angelo, Mathis Field, TX, United States
        Precipitation Type/Intensity, Hourly Precip Total
  • KTMB: Miami, Kendall-Tamiami Executive Airport, FL, United States
        Dewpoint, Thunderstorm
  • KTUP: Tupelo, Tupelo Regional Airport, MS, United States
        Dewpoint, Thunderstorm
  • KTYS: Knoxville, McGhee Tyson Airport, TN, United States
        Hourly Precip Total, Thunderstorm
  • LIVP: Paganella, Italy
        Thunderstorm, Visibility
  • LSGG: Geneve-Cointrin, Switzerland
        Precipitation Type/Intensity, Thunderstorm
  • MMMX: Mexico City / Licenci, Mexico
        3/6-Hourly Precip Total, Thunderstorm
  • MMPQ: Palenque, Mexico
        Dewpoint, Smoke
  • MMVA: Villahermosa, Mexico
        Dewpoint, Smoke
  • MPDA: David, Panama
        Dewpoint, Thunderstorm
  • MSLP: El Salvador Intl. Airport / Comalapa, El Salvador
        Dewpoint, Thunderstorm
  • NZSP: Amundsen-Scott Stn, Antarctica
        Temperature, Ice Crystals/Diamond Dust
  • ROMD: Minamidaitojima, Japan
        Dewpoint, Precipitation Type/Intensity
  • RORK: Kitadaito Island, Japan
        Dewpoint, Precipitation Type/Intensity
  • SBEG: Eduardo Gomes International, Brazil
        Dewpoint, Thunderstorm
  • SMZO: Paramaribo, Suriname
        Dewpoint, Thunderstorm
  • SPJL: Juliaca, Peru
        Pressure, Bird Hazard
  • VTBO: Trat/Khao Saming, Thailand
        Dewpoint, Precipitation Type/Intensity
  • VVCI: Cat Bi, Viet Nam
        Dewpoint, Thunderstorm
  • WBKK: Kota Kinabalu, Malaysia
        Precipitation Type/Intensity, Thunderstorm
  • WBSB: Brunei Airport, Brunei
        Dewpoint, Thunderstorm
  • WMKL: Langkawi, Malaysia
        Dewpoint, Thunderstorm


93 unidentified stations (out of a total of 165 documented unknown stations)

  • ENUN (OLD)
  • EQYE (OLD)
  • EQYF (OLD)
  • EQYT (OLD)
  • EQYV (OLD)
  • HESX (NEW)
  • K0D8 (NEW)
  • K0W3 (NEW)
  • K10U (NEW)
  • K1B9 (NEW)
  • K1D8 (NEW)
  • K1K8 (NEW)
  • K2M8 (NEW)
  • K2R2 (NEW)
  • K3K7 (NEW)
  • K3W7 (NEW)
  • K42A (NEW)
  • K49B (NEW)
  • K4B8 (NEW)
  • K60R (NEW)
  • K8V7 (NEW)
  • K9Y1 (NEW)
  • KACZ (NEW)
  • KANR (NEW)
  • KBFA (NEW)
  • KC08 (NEW)
  • KCPP (NEW)
  • KCSB (NEW)
  • KD09 (NEW)
  • KDRP (NEW)
  • KE01 (NEW)
  • KE57 (NEW)
  • KE77 (NEW)
  • KETO (NEW)
  • KF95 (NEW)
  • KFOM (NEW)
  • KGDK (NEW)
  • KHVC (NEW)
  • KI40 (NEW)
  • KI95 (NEW)
  • KK83 (NEW)
  • KMCZ (NEW)
  • KMKQ (NEW)
  • KN79 (NEW)
  • KOYE (NEW)
  • KQA8 (OLD)
  • KQAL (OLD)
  • KQB3 (OLD)
  • KQD3 (OLD)
  • KQEK (OLD)
  • KQGE (OLD)
  • KQHB (OLD)
  • KQHC (OLD)
  • KQJQ (NEW)
  • KQNE (NEW)
  • KQOO (NEW)
  • KQRD (OLD)
  • KQRP (NEW)
  • KQX2 (OLD)
  • KQXH (OLD)
  • KS12 (NEW)
  • KSBX (NEW)
  • KTQV (OLD)
  • KU64 (NEW)
  • KUWL (NEW)
  • KVGN (NEW)
  • KXIF (OLD)
  • LETU (OLD)
  • LIRY (NEW)
  • LKCR (NEW)
  • LKPJ (NEW)
  • LRBV (NEW)
  • LTFO (OLD)
  • MGMT (OLD)
  • MGTU (OLD)
  • MMGA (NEW)
  • NZQN (NEW)
  • OEAR (OLD)
  • OEMN (NEW)
  • OKKK (NEW)
  • PACX (NEW)
  • PANU (NEW)
  • PAPE (NEW)
  • PFKO (NEW)
  • PFTO (NEW)
  • PFZK (NEW)
  • SKGO (NEW)
  • UBBZ (NEW)
  • VDSA (NEW)
  • VOGA (NEW)
  • VTSY (NEW)
  • WILL (NEW)
  • YBSU (NEW)